PORTS® Data Listing: 8454049 Quonset Point, RI

CO-OPS RAW PORTS DATA

************************      PRELIMINARY DATA      ************************** 

     THIS RAW DATA HAS NOT BEEN SUBJECT TO THE NATIONAL OCEAN SERVICE'S        
     QUALITY CONTROL OR QUALITY ASSURANCE PROCEDURES AND DOES NOT MEET         
     THE CRITERIA AND STANDARDS OF OFFICIAL NATIONAL OCEAN SERVICE             
     DATA.  IT IS RELEASED FOR LIMITED PUBLIC USE AS PRELIMINARY DATA TO       
     BE USED ONLY WITH APPROPRIATE CAUTION.                                    

************************      PRELIMINARY DATA      ************************** 


       CD   -   Calendar date
       T    -   Time
       TZ   -   Timezone
       PW   -   Predicted water level (feet above MLLW)
       OW   -   Observed water level (feet above MLLW)
       WS   -   Wind speed (knots)
       WD   -   Wind direction (degrees true)
       WG   -   Wind gust (knots)
       AT   -   Air temperature (degrees farenheit)
       WT   -   Water temperature (degrees farenheit)
       AP   -   Air pressure (millibars)
       SA   -   Salinty (PSU - Practical Salinity Units)
       SG   -   Specific gravity
       RH   -   Relative humidity
       AG   -   Air gap (feet)
       VI   -   Visibility (nautical miles)

       ** NOTE **
       A variable that has its data fields filled with "9"s, indicates that
       data was not collected for that sample period.
       **********


STATION NAME: Quonset Point (8454049)
****************************************************************************************************
    CD       T    TZ    PW     OW    WS   WD   WG    AT    WT    AP    SA    SG     RH    AG   VI
****************************************************************************************************
2019/11/14 08:48 EST    4.14   4.45    4   52    8  30.7  47.8 1032.9 27.8  1.022 -99.9 -99.99 -9.99
2019/11/14 08:54 EST    4.12   4.43    4   87    8  31.5  48.2 1032.9 27.7  1.022 -99.9 -99.99 -9.99
2019/11/14 09:00 EST    4.09   4.41    5   95    6  31.5  48.2 1032.9 27.8  1.022 -99.9 -99.99 -9.99
2019/11/14 09:06 EST    4.06   4.41    3   95    8  32.0  48.4 1032.9 27.7  1.022 -99.9 -99.99 -9.99
2019/11/14 09:12 EST    4.02   4.40    3  107    6  32.0  48.4 1033.0 27.8  1.022 -99.9 -99.99 -9.99
2019/11/14 09:18 EST    3.97   4.40    4   81    7  32.0  48.4 1032.9 27.8  1.022 -99.9 -99.99 -9.99
2019/11/14 09:24 EST    3.92   4.37    4   78    6  32.4  48.4 1032.9 27.8  1.022 -99.9 -99.99 -9.99
2019/11/14 09:30 EST    3.87   4.31    5   73    6  32.4  48.4 1032.7 27.9  1.022 -99.9 -99.99 -9.99
2019/11/14 09:36 EST    3.81   4.23    4   87    6  32.5  48.6 1032.7 27.8  1.022 -99.9 -99.99 -9.99
2019/11/14 09:42 EST    3.74   4.15    4   86    6  32.7  48.6 1032.7 27.9  1.022 -99.9 -99.99 -9.99
2019/11/14 09:48 EST    3.67   4.07    5   67    7  33.3  48.6 1032.6 27.9  1.022 -99.9 -99.99 -9.99
2019/11/14 09:54 EST    3.59   4.00    4   79    7  33.1  48.7 1032.6 27.9  1.022 -99.9 -99.99 -9.99
2019/11/14 10:00 EST    3.51   3.90    5   73    7  32.9  48.7 1032.6 27.9  1.022 -99.9 -99.99 -9.99
2019/11/14 10:06 EST    3.43   3.80    4   70    6  33.4  48.7 1032.5 27.9  1.022 -99.9 -99.99 -9.99
2019/11/14 10:12 EST    3.34   3.71    4   40    5  33.4  48.9 1032.5 27.9  1.022 -99.9 -99.99 -9.99
2019/11/14 10:18 EST    3.24   3.62    3    5    5  33.6  49.1 1032.4 27.9  1.022 -99.9 -99.99 -9.99
2019/11/14 10:24 EST    3.15   3.50    6   15    8  33.3  49.3 1032.4 27.9  1.022 -99.9 -99.99 -9.99
2019/11/14 10:30 EST    3.05   3.39    6   19    8  33.1  49.1 1032.3 28.0  1.022 -99.9 -99.99 -9.99
2019/11/14 10:36 EST    2.95   3.26    4    2    7  33.4  49.1 1032.2 28.0  1.022 -99.9 -99.99 -9.99
2019/11/14 10:42 EST    2.85   3.16    4    4    6  34.0  48.9 1032.1 28.0  1.022 -99.9 -99.99 -9.99
2019/11/14 10:48 EST    2.74   3.04    4   20    6  34.0  48.9 1031.9 28.0  1.022 -99.9 -99.99 -9.99
2019/11/14 10:54 EST    2.63   2.90    4   18    5  34.2  48.9 1031.8 27.9  1.022 -99.9 -99.99 -9.99
2019/11/14 11:00 EST    2.52   2.78    4   22    5  34.3  48.9 1031.7 27.9  1.022 -99.9 -99.99 -9.99
2019/11/14 11:06 EST    2.41   2.64    3  357    5  34.5  48.9 1031.5 27.9  1.022 -99.9 -99.99 -9.99
2019/11/14 11:12 EST    2.30   2.50    4   45    6  34.5  48.9 1031.4 27.9  1.022 -99.9 -99.99 -9.99
2019/11/14 11:18 EST    2.19   2.34    5   32    7  35.2  48.9 1031.3 27.9  1.022 -99.9 -99.99 -9.99
2019/11/14 11:24 EST    2.07   2.22    4   28    7  35.1  48.9 1031.2 27.9  1.022 -99.9 -99.99 -9.99
2019/11/14 11:30 EST    1.96   2.10    5   21    7  35.1  48.9 1031.1 27.9  1.022 -99.9 -99.99 -9.99
2019/11/14 11:36 EST    1.85   1.99    6   25    8  35.1  48.9 1030.9 27.9  1.022 -99.9 -99.99 -9.99
2019/11/14 11:42 EST    1.74   1.88    4    9    7  35.4  48.9 1030.9 27.9  1.022 -99.9 -99.99 -9.99
2019/11/14 11:48 EST    1.63   1.75    6    0    8  35.2  48.9 1030.6 27.9  1.022 -99.9 -99.99 -9.99
2019/11/14 11:54 EST    1.52   1.64    6    8    7  35.2  48.7 1030.6 27.9  1.022 -99.9 -99.99 -9.99
2019/11/14 12:00 EST    1.41   1.49    6  358    7  35.1  48.9 1030.5 27.9  1.022 -99.9 -99.99 -9.99
2019/11/14 12:06 EST    1.30   1.38    5  350    7  35.6  48.7 1030.4 28.0  1.023 -99.9 -99.99 -9.99
2019/11/14 12:12 EST    1.20   1.28    6  345    7  35.8  48.7 1030.4 28.0  1.022 -99.9 -99.99 -9.99
2019/11/14 12:18 EST    1.10   1.17    6  340    7  36.0  48.7 1030.3 28.0  1.022 -99.9 -99.99 -9.99
2019/11/14 12:24 EST    1.00   1.04    6    5    7  36.0  48.7 1030.2 28.0  1.022 -99.9 -99.99 -9.99
2019/11/14 12:30 EST    0.91   0.94    6    4    8  36.5  48.7 1030.2 27.9  1.022 -99.9 -99.99 -9.99
2019/11/14 12:36 EST    0.82   0.86    6   12    8  36.7  48.7 1030.0 27.9  1.022 -99.9 -99.99 -9.99
2019/11/14 12:42 EST    0.73   0.76    6    3    7  37.0  48.7 1029.9 27.9  1.022 -99.9 -99.99 -9.99
2019/11/14 12:48 EST    0.64   0.68    6   12    7  37.0  48.7 1029.8 27.9  1.022 -99.9 -99.99 -9.99
2019/11/14 12:54 EST    0.56   0.64    6   14    7  37.2  48.7 1029.6 27.9  1.022 -99.9 -99.99 -9.99
2019/11/14 13:00 EST    0.49   0.56    6    7    7  37.6  48.7 1029.7 27.9  1.022 -99.9 -99.99 -9.99
2019/11/14 13:06 EST    0.42   0.50    5  355    7  37.8  48.7 1029.7 27.9  1.022 -99.9 -99.99 -9.99
2019/11/14 13:12 EST    0.35   0.48    5  343    7  37.8  48.7 1029.7 27.9  1.022 -99.9 -99.99 -9.99
2019/11/14 13:18 EST    0.29   0.44    4  350    5  37.9  48.9 1029.5 27.8  1.022 -99.9 -99.99 -9.99
2019/11/14 13:24 EST    0.24   0.41    3  358    5  38.5  48.9 1029.5 27.8  1.022 -99.9 -99.99 -9.99
2019/11/14 13:30 EST    0.19   0.38    3    3    4  38.8  48.9 1029.4 27.8  1.022 -99.9 -99.99 -9.99
2019/11/14 13:36 EST    0.14   0.36    3   35    4  38.8  48.9 1029.3 27.8  1.022 -99.9 -99.99 -9.99
2019/11/14 13:42 EST    0.10   0.37    4  353    4  39.2  48.7 1029.3 27.9  1.022 -99.9 -99.99 -9.99
2019/11/14 13:48 EST    0.07   0.38    4  355    5  39.4  48.7 1029.2 27.8  1.022 -99.9 -99.99 -9.99
2019/11/14 13:54 EST    0.04   0.37    3  360    4  39.7  48.7 1029.2 27.8  1.022 -99.9 -99.99 -9.99
2019/11/14 14:00 EST    0.01   0.37    5  359    6  39.9  48.7 1029.2 27.8  1.022 -99.9 -99.99 -9.99
2019/11/14 14:06 EST   -0.01   0.36    4   12    5  39.9  48.7 1029.2 27.8  1.022 -99.9 -99.99 -9.99
2019/11/14 14:12 EST   -0.02   0.35    5   33    6  39.7  48.7 1029.1 27.8  1.022 -99.9 -99.99 -9.99
2019/11/14 14:18 EST   -0.03   0.32    5   42    6  39.7  48.7 1028.9 27.8  1.022 -99.9 -99.99 -9.99
2019/11/14 14:24 EST   -0.03   0.34    4   37    6  39.9  48.7 1028.9 27.8  1.022 -99.9 -99.99 -9.99
2019/11/14 14:30 EST   -0.03   0.34    5   59    6  39.7  48.7 1028.8 27.7  1.022 -99.9 -99.99 -9.99
2019/11/14 14:36 EST   -0.03   0.34    4   62    5  40.5  48.9 1028.8 27.8  1.022 -99.9 -99.99 -9.99
2019/11/14 14:42 EST   -0.02   0.36    4   50    5  40.5  48.9 1028.6 27.8  1.022 -99.9 -99.99 -9.99
2019/11/14 14:48 EST   -0.01   0.38    4   58    5  40.8  48.9 1028.6 27.8  1.022 -99.9 -99.99 -9.99
2019/11/14 14:54 EST    0.01   0.39    5   69    6  41.0  48.9 1028.4 27.8  1.022 -99.9 -99.99 -9.99
2019/11/14 15:00 EST    0.03   0.40    3   84    5  41.5  48.9 1028.4 27.8  1.022 -99.9 -99.99 -9.99
2019/11/14 15:06 EST    0.06   0.44    2  179    4  41.7  48.9 1028.3 27.8  1.022 -99.9 -99.99 -9.99
2019/11/14 15:12 EST    0.08   0.51    1  176    3  41.9  48.9 1028.3 27.8  1.022 -99.9 -99.99 -9.99
2019/11/14 15:18 EST    0.11   0.52    1  233    2  42.4  48.9 1028.2 27.8  1.022 -99.9 -99.99 -9.99
2019/11/14 15:24 EST    0.14   0.51    5  226    7  43.2  48.9 1028.2 27.8  1.022 -99.9 -99.99 -9.99
2019/11/14 15:30 EST    0.18   0.52   13  204   15  45.7  48.7 1028.0 27.8  1.022 -99.9 -99.99 -9.99
2019/11/14 15:36 EST    0.22   0.55   11  202   14  46.0  48.7 1028.0 27.8  1.022 -99.9 -99.99 -9.99
2019/11/14 15:42 EST    0.25   0.62   12  205   17  46.0  48.9 1027.9 27.8  1.022 -99.9 -99.99 -9.99
2019/11/14 15:48 EST    0.30   0.62   11  200   13  46.0  48.9 1027.8 27.8  1.022 -99.9 -99.99 -9.99
2019/11/14 15:54 EST    0.34   0.63    8  201   11  46.0  48.7 1027.8 27.8  1.022 -99.9 -99.99 -9.99
2019/11/14 16:00 EST    0.38   0.71    9  199   10  46.0  48.7 1027.7 27.8  1.022 -99.9 -99.99 -9.99
2019/11/14 16:06 EST    0.43   0.73    9  201   11  46.2  48.7 1027.7 27.8  1.022 -99.9 -99.99 -9.99
2019/11/14 16:12 EST    0.48   0.79   10  204   11  46.2  48.7 1027.6 27.7  1.022 -99.9 -99.99 -9.99
2019/11/14 16:18 EST    0.53   0.84   10  207   11  46.4  48.7 1027.6 27.7  1.022 -99.9 -99.99 -9.99
2019/11/14 16:24 EST    0.58   0.88   10  204   11  46.6  48.9 1027.6 27.7  1.022 -99.9 -99.99 -9.99
2019/11/14 16:30 EST    0.63   0.93   10  208   13  46.8  48.9 1027.6 27.7  1.022 -99.9 -99.99 -9.99
2019/11/14 16:36 EST    0.68   0.95   11  206   12  46.8  48.9 1027.6 27.8  1.022 -99.9 -99.99 -9.99
2019/11/14 16:42 EST    0.74   1.02   10  207   11  46.8  48.9 1027.5 27.8  1.022 -99.9 -99.99 -9.99
2019/11/14 16:48 EST    0.80   1.06   11  204   12  46.9  48.9 1027.4 27.8  1.022 -99.9 -99.99 -9.99
2019/11/14 16:54 EST    0.85   1.14   10  207   12  46.9  48.9 1027.3 27.8  1.022 -99.9 -99.99 -9.99
2019/11/14 17:00 EST    0.91   1.17   11  205   12  46.9  48.9 1027.2 27.8  1.022 -99.9 -99.99 -9.99
2019/11/14 17:06 EST    0.98   1.27   10  204   11  47.1  48.7 1027.2 27.6  1.022 -99.9 -99.99 -9.99
2019/11/14 17:12 EST    1.04   1.38   11  201   13  47.3  48.7 1027.2 27.6  1.022 -99.9 -99.99 -9.99
2019/11/14 17:18 EST    1.11   1.48   11  206   13  47.1  48.7 1027.2 27.7  1.022 -99.9 -99.99 -9.99
2019/11/14 17:24 EST    1.17   1.51   12  200   13  47.5  48.7 1027.1 27.7  1.022 -99.9 -99.99 -9.99
2019/11/14 17:30 EST    1.24   1.61   11  203   12  47.5  48.7 1026.9 27.6  1.022 -99.9 -99.99 -9.99
2019/11/14 17:36 EST    1.32   1.73    7  221   12  46.8  48.7 1027.1 27.6  1.022 -99.9 -99.99 -9.99
2019/11/14 17:42 EST    1.39   1.77    4  279    6  43.5  48.9 1027.1 27.6  1.022 -99.9 -99.99 -9.99
2019/11/14 17:48 EST    1.46   1.88    4  303    5  41.4  48.9 1027.0 27.7  1.022 -99.9 -99.99 -9.99
2019/11/14 17:54 EST    1.54   2.02    4  303    5  41.4  48.9 1027.0 27.7  1.022 -99.9 -99.99 -9.99
2019/11/14 18:00 EST    1.62   2.13    4  300    7  42.1  48.9 1027.0 27.7  1.022 -99.9 -99.99 -9.99
2019/11/14 18:06 EST    1.70   2.19    3  305    4  41.7  48.9 1027.1 27.7  1.022 -99.9 -99.99 -9.99
2019/11/14 18:12 EST    1.78   2.30    2  311    4  42.1  48.9 1027.0 27.7  1.022 -99.9 -99.99 -9.99
2019/11/14 18:18 EST    1.87   2.44    2  306    3  42.1  48.7 1026.9 27.8  1.022 -99.9 -99.99 -9.99
2019/11/14 18:24 EST    1.95   2.57    3  298    3  42.6  48.7 1026.8 27.8  1.022 -99.9 -99.99 -9.99
2019/11/14 18:30 EST    2.04   2.67    3  302    4  42.8  48.7 1026.7 27.7  1.022 -99.9 -99.99 -9.99
2019/11/14 18:36 EST    2.13   2.78    2  305    3  42.3  48.7 1026.7 27.7  1.022 -99.9 -99.99 -9.99
2019/11/14 18:42 EST    2.22   2.89    3  308    4  41.4  48.7 1026.7 27.7  1.022 -99.9 -99.99 -9.99
2019/11/14 18:48 EST    2.31   2.97    3  304    4  40.6  48.6 1026.6 27.8  1.022 -99.9 -99.99 -9.99
2019/11/14 18:54 EST    2.39   3.05    3  302    4  41.0  48.4 1026.6 27.8  1.022 -99.9 -99.99 -9.99
2019/11/14 19:00 EST    2.48   3.15    3  303    3  41.0  48.4 1026.6 27.7  1.022 -99.9 -99.99 -9.99
2019/11/14 19:06 EST    2.57   3.23    2  306    4  41.4  48.9 1026.6 27.8  1.022 -99.9 -99.99 -9.99
2019/11/14 19:12 EST    2.66   3.31    2  290    2  41.5  48.7 1026.6 27.8  1.022 -99.9 -99.99 -9.99
2019/11/14 19:18 EST    2.74   3.37    1  288    2  41.9  48.9 1026.5 27.8  1.022 -99.9 -99.99 -9.99
2019/11/14 19:24 EST    2.83   3.47    1  280    2  41.7  48.6 1026.3 27.8  1.022 -99.9 -99.99 -9.99
2019/11/14 19:30 EST    2.91   3.57    2  256    2  41.7  48.9 1026.3 27.8  1.022 -99.9 -99.99 -9.99
2019/11/14 19:36 EST    2.98   3.65    2  266    2  40.8  49.1 1026.3 27.7  1.022 -99.9 -99.99 -9.99
2019/11/14 19:42 EST    3.06   3.72    3  246    4  39.6  48.7 1026.3 27.8  1.022 -99.9 -99.99 -9.99
2019/11/14 19:48 EST    3.13   3.80    2  234    4  39.4  48.6 1026.2 27.9  1.022 -99.9 -99.99 -9.99
2019/11/14 19:54 EST    3.20   3.89    2  233    3  39.9  48.7 1026.1 27.8  1.022 -99.9 -99.99 -9.99
2019/11/14 20:00 EST    3.26   3.96    1  247    2  39.9  48.9 1026.0 27.8  1.022 -99.9 -99.99 -9.99
2019/11/14 20:06 EST    3.32   3.99    2  243    3  39.7  48.9 1026.0 27.8  1.022 -99.9 -99.99 -9.99
2019/11/14 20:12 EST    3.37   4.02    2  248    3  39.9  48.9 1026.0 27.8  1.022 -99.9 -99.99 -9.99
2019/11/14 20:18 EST    3.42   4.06    1  260    3  40.1  48.9 1025.9 27.8  1.022 -99.9 -99.99 -9.99
2019/11/14 20:24 EST    3.46   4.09    2  288    2  40.1  48.9 1025.9 27.8  1.022 -99.9 -99.99 -9.99
2019/11/14 20:30 EST    3.50   4.09    2  286    3  39.9  48.9 1025.9 27.8  1.022 -99.9 -99.99 -9.99
2019/11/14 20:36 EST    3.53   4.09    2  289    3  39.2  48.9 1025.9 27.8  1.022 -99.9 -99.99 -9.99
2019/11/14 20:42 EST    3.56   4.11    3  291    3  39.2  48.9 1025.9 27.8  1.022 -99.9 -99.99 -9.99
2019/11/14 20:48 EST    3.57   4.10    2  283    3  39.0  48.9 1025.9 27.8  1.022 -99.9 -99.99 -9.99
2019/11/14 20:54 EST    3.58   4.06    1  292    2  39.2  48.9 1025.9 27.8  1.022 -99.9 -99.99 -9.99
2019/11/14 21:00 EST    3.59   4.08    1  265    2  39.4  49.1 1025.9 27.8  1.022 -99.9 -99.99 -9.99
2019/11/14 21:06 EST    3.59   4.09    2  291    2  39.4  49.1 1025.8 27.8  1.022 -99.9 -99.99 -9.99
2019/11/14 21:12 EST    3.58   4.08    2  332    2  39.0  49.1 1025.8 27.8  1.022 -99.9 -99.99 -9.99
2019/11/14 21:18 EST    3.56   4.04    2  357    2  38.1  49.1 1025.7 27.8  1.022 -99.9 -99.99 -9.99
2019/11/14 21:24 EST    3.54   4.01    3    0    3  37.0  49.1 1025.7 27.8  1.022 -99.9 -99.99 -9.99
2019/11/14 21:30 EST    3.51   3.97    2  340    3  37.0  49.1 1025.6 27.8  1.022 -99.9 -99.99 -9.99
2019/11/14 21:36 EST    3.47   3.93    0  331    2  37.4  49.1 1025.6 27.8  1.022 -99.9 -99.99 -9.99
2019/11/14 21:42 EST    3.43   3.90    0  330    1  38.1  48.9 1025.6 27.8  1.022 -99.9 -99.99 -9.99
2019/11/14 21:48 EST    3.38   3.87    0  330    0  38.8  48.9 1025.6 27.8  1.022 -99.9 -99.99 -9.99
2019/11/14 21:54 EST    3.33   3.80    2  314    2  39.4  48.9 1025.7 27.8  1.022 -99.9 -99.99 -9.99
2019/11/14 22:00 EST    3.27   3.69    3  302    3  39.0  48.9 1025.8 27.7  1.022 -99.9 -99.99 -9.99
2019/11/14 22:06 EST    3.20   3.61    3  310    4  38.8  48.9 1025.8 27.8  1.022 -99.9 -99.99 -9.99
2019/11/14 22:12 EST    3.13   3.58    2  333    3  38.7  48.9 1025.7 27.8  1.022 -99.9 -99.99 -9.99
2019/11/14 22:18 EST    3.05   3.52    3  342    3  37.8  48.9 1025.6 27.8  1.022 -99.9 -99.99 -9.99
2019/11/14 22:24 EST    2.97   3.43    4  334    4  36.9  48.9 1025.5 27.8  1.022 -99.9 -99.99 -9.99
2019/11/14 22:30 EST    2.88   3.32    3  329    4  37.2  48.9 1025.5 27.8  1.022 -99.9 -99.99 -9.99
2019/11/14 22:36 EST    2.79   3.26    3  328    4  37.4  48.9 1025.6 27.8  1.022 -99.9 -99.99 -9.99
2019/11/14 22:42 EST    2.70   3.17    2  333    4  37.8  48.9 1025.6 27.8  1.022 -99.9 -99.99 -9.99
2019/11/14 22:48 EST    2.60   3.08    1  330    2  38.3  48.9 1025.5 27.8  1.022 -99.9 -99.99 -9.99
2019/11/14 22:54 EST    2.50   3.00    1  348    1  38.5  48.9 1025.5 27.8  1.022 -99.9 -99.99 -9.99
2019/11/14 23:00 EST    2.40   2.93    2  329    2  38.7  49.1 1025.4 27.8  1.022 -99.9 -99.99 -9.99
2019/11/14 23:06 EST    2.29   2.82    0  339    2  38.8  49.1 1025.3 27.8  1.022 -99.9 -99.99 -9.99
2019/11/14 23:12 EST    2.18   2.72    0  340    1  39.0  49.1 1025.2 27.8  1.022 -99.9 -99.99 -9.99
2019/11/14 23:18 EST    2.07   2.60    0   43    1  39.4  49.1 1025.1 27.8  1.022 -99.9 -99.99 -9.99
2019/11/14 23:24 EST    1.96   2.49    0   59    1  39.7  49.1 1025.2 27.8  1.022 -99.9 -99.99 -9.99
2019/11/14 23:30 EST    1.85   2.40    1  211    2  40.1  49.1 1025.1 27.8  1.022 -99.9 -99.99 -9.99
2019/11/14 23:36 EST    1.74   2.30    2  229    3  40.8  49.1 1025.1 27.8  1.022 -99.9 -99.99 -9.99
2019/11/14 23:42 EST    1.63   2.19    3  249    4  40.5  49.1 1025.1 27.8  1.022 -99.9 -99.99 -9.99
2019/11/14 23:48 EST    1.52   2.06    3  257    4  39.7  49.1 1025.1 27.8  1.022 -99.9 -99.99 -9.99
2019/11/14 23:54 EST    1.41   1.96    3  253    4  38.8  49.1 1025.1 27.8  1.022 -99.9 -99.99 -9.99
2019/11/15 00:00 EST    1.30   1.85    3  246    4  38.8  48.9 1025.1 27.9  1.022 -99.9 -99.99 -9.99
2019/11/15 00:06 EST    1.19   1.75    2  261    4  38.8  49.1 1025.0 27.8  1.022 -99.9 -99.99 -9.99
2019/11/15 00:12 EST    1.08   1.63    2  282    3  38.7  49.1 1025.0 27.8  1.022 -99.9 -99.99 -9.99
2019/11/15 00:18 EST    0.98   1.51    2  289    3  38.1  49.1 1025.0 27.8  1.022 -99.9 -99.99 -9.99
2019/11/15 00:24 EST    0.87   1.39    2  292    3  37.9  49.1 1025.0 27.8  1.022 -99.9 -99.99 -9.99
2019/11/15 00:30 EST    0.78   1.27    2  291    4  38.7  48.9 1025.0 27.9  1.022 -99.9 -99.99 -9.99
2019/11/15 00:36 EST    0.68   1.17    2  283    3  38.8  48.7 1025.0 27.9  1.022 -99.9 -99.99 -9.99
2019/11/15 00:42 EST    0.59   1.06    1  280    3  39.6  48.7 1024.9 27.9  1.022 -99.9 -99.99 -9.99
2019/11/15 00:48 EST    0.50   0.94    2  241    3  39.7  48.7 1024.8 27.8  1.022 -99.9 -99.99 -9.99
2019/11/15 00:54 EST    0.42   0.83    1  266    2  39.7  48.7 1024.7 27.8  1.022 -99.9 -99.99 -9.99
2019/11/15 01:00 EST    0.34   0.75    2  247    3  39.9  48.7 1024.6 27.8  1.022 -99.9 -99.99 -9.99
2019/11/15 01:06 EST    0.27   0.67    1  278    3  39.9  48.7 1024.7 27.8  1.022 -99.9 -99.99 -9.99
2019/11/15 01:12 EST    0.20   0.58    1  267    3  39.7  48.7 1024.7 27.8  1.022 -99.9 -99.99 -9.99
2019/11/15 01:18 EST    0.13   0.47    2  284    3  39.2  48.7 1024.8 27.8  1.022 -99.9 -99.99 -9.99
2019/11/15 01:24 EST    0.08   0.37    2  301    4  38.7  48.7 1024.8 27.8  1.022 -99.9 -99.99 -9.99
2019/11/15 01:30 EST    0.03   0.30    2  345    3  37.0  48.7 1024.8 27.8  1.022 -99.9 -99.99 -9.99
2019/11/15 01:36 EST   -0.02   0.25    1  346    2  37.8  48.7 1024.7 27.8  1.022 -99.9 -99.99 -9.99
2019/11/15 01:42 EST   -0.06   0.17    1  332    2  38.1  48.9 1024.6 27.7  1.022 -99.9 -99.99 -9.99
2019/11/15 01:48 EST   -0.09   0.13    2  319    2  39.0  48.9 1024.6 27.7  1.022 -99.9 -99.99 -9.99
2019/11/15 01:54 EST   -0.12   0.09    2  315    3  39.4  48.9 1024.6 27.8  1.022 -99.9 -99.99 -9.99
2019/11/15 02:00 EST   -0.14   0.05    1  331    2  39.7  48.9 1024.5 27.8  1.022 -99.9 -99.99 -9.99
2019/11/15 02:06 EST   -0.15   0.03    0  341    1  39.7  49.1 1024.4 27.7  1.022 -99.9 -99.99 -9.99
2019/11/15 02:12 EST   -0.16   0.03    0  319    1  39.9  48.9 1024.2 27.8  1.022 -99.9 -99.99 -9.99
2019/11/15 02:18 EST   -0.16   0.03    1  279    2  40.1  49.1 1024.2 27.8  1.022 -99.9 -99.99 -9.99
2019/11/15 02:24 EST   -0.15   0.02    1  315    3  40.5  48.9 1024.1 27.8  1.022 -99.9 -99.99 -9.99
2019/11/15 02:30 EST   -0.14   0.04    1  307    2  39.9  48.9 1024.0 27.7  1.022 -99.9 -99.99 -9.99
2019/11/15 02:36 EST   -0.13   0.06    1  300    1  39.9  48.9 1023.9 27.7  1.022 -99.9 -99.99 -9.99
2019/11/15 02:42 EST   -0.10   0.09    1  285    2  39.9  48.6 1023.9 27.7  1.022 -99.9 -99.99 -9.99
2019/11/15 02:48 EST   -0.07   0.15    3  284    3  40.3  48.6 1023.9 27.6  1.022 -99.9 -99.99 -9.99
2019/11/15 02:54 EST   -0.04   0.18    2  306    3  40.3  48.7 1023.9 27.7  1.022 -99.9 -99.99 -9.99
2019/11/15 03:00 EST   -0.00   0.21    2  298    3  40.1  48.7 1023.9 27.7  1.022 -99.9 -99.99 -9.99
2019/11/15 03:06 EST    0.04   0.23    2  302    4  39.9  48.7 1024.0 27.7  1.022 -99.9 -99.99 -9.99
2019/11/15 03:12 EST    0.09   0.26    2  291    3  39.6  48.7 1024.0 27.8  1.022 -99.9 -99.99 -9.99
2019/11/15 03:18 EST    0.14   0.31    2  294    4  39.6  48.7 1024.0 27.7  1.022 -99.9 -99.99 -9.99
2019/11/15 03:24 EST    0.19   0.37    2  286    5  39.6  48.7 1023.9 27.7  1.022 -99.9 -99.99 -9.99
2019/11/15 03:30 EST    0.25   0.44    3  279    4  39.7  48.6 1023.9 27.7  1.022 -99.9 -99.99 -9.99
2019/11/15 03:36 EST    0.31   0.52    2  266    4  39.7  48.7 1023.9 27.7  1.022 -99.9 -99.99 -9.99
2019/11/15 03:42 EST    0.37   0.55    2  269    3  39.9  48.6 1024.0 27.7  1.022 -99.9 -99.99 -9.99
2019/11/15 03:48 EST    0.44   0.61    2  278    4  39.9  48.4 1023.9 27.7  1.022 -99.9 -99.99 -9.99
2019/11/15 03:54 EST    0.50   0.71    2  265    3  39.7  48.4 1023.8 27.7  1.022 -99.9 -99.99 -9.99
2019/11/15 04:00 EST    0.57   0.77    3  248    4  39.6  48.4 1023.7 27.7  1.022 -99.9 -99.99 -9.99
2019/11/15 04:06 EST    0.64   0.84    3  244    5  39.7  48.4 1023.7 27.7  1.022 -99.9 -99.99 -9.99
2019/11/15 04:12 EST    0.71   0.92    1  262    4  39.7  48.4 1023.7 27.7  1.022 -99.9 -99.99 -9.99
2019/11/15 04:18 EST    0.79   1.02    1  263    3  39.7  48.4 1023.7 27.7  1.022 -99.9 -99.99 -9.99
2019/11/15 04:24 EST    0.86   1.11    2  281    3  39.6  48.2 1023.7 27.7  1.022 -99.9 -99.99 -9.99
2019/11/15 04:30 EST    0.94   1.18    2  260    2  39.2  48.2 1023.7 27.7  1.022 -99.9 -99.99 -9.99
2019/11/15 04:36 EST    1.01   1.25    3  236    4  39.6  48.2 1023.6 27.7  1.022 -99.9 -99.99 -9.99
2019/11/15 04:42 EST    1.08   1.37    1  273    4  39.0  48.2 1023.8 27.6  1.022 -99.9 -99.99 -9.99
2019/11/15 04:48 EST    1.16   1.49    1  268    3  38.3  48.0 1023.7 27.6  1.022 -99.9 -99.99 -9.99
2019/11/15 04:54 EST    1.24   1.54    2  276    4  37.8  48.2 1023.8 27.6  1.022 -99.9 -99.99 -9.99
2019/11/15 05:00 EST    1.31   1.61    2  255    3  37.2  48.0 1023.9 27.7  1.022 -99.9 -99.99 -9.99
2019/11/15 05:06 EST    1.39   1.70    3  255    4  37.4  48.0 1023.9 27.6  1.022 -99.9 -99.99 -9.99
2019/11/15 05:12 EST    1.46   1.78    2  277    4  37.4  48.0 1024.0 27.6  1.022 -99.9 -99.99 -9.99
2019/11/15 05:18 EST    1.54   1.85    2  265    4  37.0  48.0 1023.9 27.5  1.022 -99.9 -99.99 -9.99
2019/11/15 05:24 EST    1.62   1.94    3  238    4  36.7  48.0 1023.7 27.6  1.022 -99.9 -99.99 -9.99
2019/11/15 05:30 EST    1.69   2.04    2  252    3  36.3  47.8 1023.6 27.5  1.022 -99.9 -99.99 -9.99
2019/11/15 05:36 EST    1.77   2.10    0  246    3  36.5  48.0 1023.4 27.6  1.022 -99.9 -99.99 -9.99
2019/11/15 05:42 EST    1.85   2.19    1  289    1  36.3  48.0 1023.5 27.7  1.022 -99.9 -99.99 -9.99
2019/11/15 05:48 EST    1.93   2.30    1  280    2  36.5  47.8 1023.6 27.7  1.022 -99.9 -99.99 -9.99
2019/11/15 05:54 EST    2.00   2.38    3  242    3  37.0  47.8 1023.7 27.4  1.022 -99.9 -99.99 -9.99
2019/11/15 06:00 EST    2.08   2.45    3  248    4  36.9  47.7 1023.7 27.5  1.022 -99.9 -99.99 -9.99
2019/11/15 06:06 EST    2.16   2.51    2  260    4  37.0  47.7 1023.6 27.5  1.022 -99.9 -99.99 -9.99
2019/11/15 06:12 EST    2.24   2.62    3  240    4  36.9  47.7 1023.6 27.4  1.022 -99.9 -99.99 -9.99
2019/11/15 06:18 EST    2.32   2.72    4  232    5  36.7  47.7 1023.5 27.4  1.022 -99.9 -99.99 -9.99
2019/11/15 06:24 EST    2.40   2.76    4  243    6  36.5  47.8 1023.6 27.4  1.022 -99.9 -99.99 -9.99
2019/11/15 06:30 EST    2.48   2.86    3  257    5  36.7  47.7 1023.7 27.5  1.022 -99.9 -99.99 -9.99
2019/11/15 06:36 EST    2.57   2.96    3  243    4  36.9  47.7 1023.6 27.5  1.022 -99.9 -99.99 -9.99
2019/11/15 06:42 EST    2.65   3.01    5  232    6  37.4  47.7 1023.6 27.5  1.022 -99.9 -99.99 -9.99
2019/11/15 06:48 EST    2.73   3.07    4  249    6  37.9  47.7 1023.6 27.4  1.022 -99.9 -99.99 -9.99
2019/11/15 06:54 EST    2.81   3.19    5  243    6  38.1  47.7 1023.6 27.4  1.022 -99.9 -99.99 -9.99
2019/11/15 07:00 EST    2.89   3.28    6  242    8  38.1  47.7 1023.6 27.4  1.022 -99.9 -99.99 -9.99
2019/11/15 07:06 EST    2.97   3.35    7  235    8  38.5  47.7 1023.6 27.4  1.022 -99.9 -99.99 -9.99
2019/11/15 07:12 EST    3.06   3.42    6  241    8  38.8  47.3 1023.7 27.2  1.022 -99.9 -99.99 -9.99
2019/11/15 07:18 EST    3.14   3.48    5  247    7  38.7  47.5 1023.7 27.2  1.022 -99.9 -99.99 -9.99
2019/11/15 07:24 EST    3.21   3.52    4  246    7  38.3  47.5 1023.8 27.1  1.022 -99.9 -99.99 -9.99
2019/11/15 07:30 EST    3.29   3.59    2  265    6  37.8  47.3 1023.7 27.2  1.022 -99.9 -99.99 -9.99
2019/11/15 07:36 EST    3.37   3.68    4  248    6  37.8  47.1 1023.8 27.2  1.022 -99.9 -99.99 -9.99
2019/11/15 07:42 EST    3.44   3.74    4  248    6  37.8  46.9 1023.9 27.1  1.022 -99.9 -99.99 -9.99
2019/11/15 07:48 EST    3.51   3.81    4  248    6  37.9  46.8 1023.9 27.2  1.022 -99.9 -99.99 -9.99
2019/11/15 07:54 EST    3.58   3.89    4  251    7  38.1  46.6 1023.7 27.2  1.022 -99.9 -99.99 -9.99
2019/11/15 08:00 EST    3.65   3.99    4  242    6  38.8  46.6 1023.7 27.2  1.022 -99.9 -99.99 -9.99
2019/11/15 08:06 EST    3.71   4.03    4  247    5  39.2  46.8 1023.7 27.1  1.022 -99.9 -99.99 -9.99
2019/11/15 08:12 EST    3.77   4.07    3  263    6  39.6  46.8 1023.8 27.1  1.022 -99.9 -99.99 -9.99
2019/11/15 08:18 EST    3.83   4.10    3  255    5  39.0  46.9 1023.7 27.1  1.022 -99.9 -99.99 -9.99
2019/11/15 08:24 EST    3.88   4.15    4  249    6  38.7  47.3 1023.8 27.0  1.022 -99.9 -99.99 -9.99
2019/11/15 08:30 EST    3.92   4.17    6  243    9  39.7  47.8 1023.7 26.8  1.022 -99.9 -99.99 -9.99
2019/11/15 08:36 EST    3.96   4.19    8  242    9  40.8  48.0 1023.6 26.9  1.022 -99.9 -99.99 -9.99
2019/11/15 08:42 EST    4.00   4.21    9  240   11  41.4  47.7 1023.5 27.2  1.022 -99.9 -99.99 -9.99
2019/11/15 08:48 EST    4.03   4.26    7  233   10  41.9  47.8 1023.3 27.2  1.022 -99.9 -99.99 -9.99
2019/11/15 08:54 EST    4.05   4.30    7  235    8  42.3  47.8 1023.3 27.3  1.022 -99.9 -99.99 -9.99
2019/11/15 09:00 EST    4.07   4.34    6  248    8  42.8  48.0 1023.4 27.3  1.022 -99.9 -99.99 -9.99
2019/11/15 09:06 EST    4.09   4.34    6  242    8  43.3  47.8 1023.2 27.4  1.022 -99.9 -99.99 -9.99
2019/11/15 09:12 EST    4.09   4.36    8  235   10  43.7  47.8 1023.2 27.4  1.022 -99.9 -99.99 -9.99
2019/11/15 09:18 EST    4.10   4.42    9  234   11  44.2  47.8 1023.2 27.4  1.022 -99.9 -99.99 -9.99
2019/11/15 09:24 EST    4.09   4.44   10  235   12  44.8  48.0 1023.1 27.4  1.022 -99.9 -99.99 -9.99
2019/11/15 09:30 EST    4.08   4.37    9  239   12  45.1  48.0 1023.0 27.4  1.022 -99.9 -99.99 -9.99
2019/11/15 09:36 EST    4.06   4.35    8  242   11  45.3  48.0 1022.8 27.4  1.022 -99.9 -99.99 -9.99
2019/11/15 09:42 EST    4.04   4.36   11  237   13  45.5  47.7 1022.7 27.3  1.022 -99.9 -99.99 -9.99
2019/11/15 09:48 EST    4.01   4.31    8  244   11  45.9  47.8 1022.7 27.3  1.022 -99.9 -99.99 -9.99
2019/11/15 09:54 EST    3.97   4.26    9  241   11  46.0  48.0 1022.6 27.3  1.022 -99.9 -99.99 -9.99
2019/11/15 10:00 EST    3.93   4.25   10  240   13  46.4  48.0 1022.5 27.3  1.022 -99.9 -99.99 -9.99
2019/11/15 10:06 EST    3.88   4.28   14  236   16  46.4  47.8 1022.3 27.4  1.022 -99.9 -99.99 -9.99
2019/11/15 10:12 EST    3.83   4.21   11  246   17  46.8  47.8 1022.3 27.4  1.022 -99.9 -99.99 -9.99
2019/11/15 10:18 EST    3.77   4.11    8  246   14  47.1  47.8 1022.2 27.4  1.022 -99.9 -99.99 -9.99
2019/11/15 10:24 EST    3.71   4.08   11  238   13  46.9  48.0 1022.2 27.3  1.022 -99.9 -99.99 -9.99
2019/11/15 10:30 EST    3.64   4.07   11  240   14  47.1  48.2 1022.1 27.4  1.022 -99.9 -99.99 -9.99
2019/11/15 10:36 EST    3.56   3.96   10  242   15  47.5  48.4 1021.9 27.4  1.022 -99.9 -99.99 -9.99
2019/11/15 10:42 EST    3.48   3.88   11  239   14  47.7  48.4 1021.9 27.5  1.022 -99.9 -99.99 -9.99
2019/11/15 10:48 EST    3.40   3.78   11  238   14  47.8  48.4 1021.6 27.5  1.022 -99.9 -99.99 -9.99
2019/11/15 10:54 EST    3.31   3.69   12  234   15  48.0  48.4 1021.5 27.6  1.022 -99.9 -99.99 -9.99
2019/11/15 11:00 EST    3.22   3.65   12  237   14  48.4  48.6 1021.4 27.6  1.022 -99.9 -99.99 -9.99
2019/11/15 11:06 EST    3.13   3.58   12  225   15  48.6  48.6 1021.2 27.6  1.022 -99.9 -99.99 -9.99
2019/11/15 11:12 EST    3.03   3.46   13  240   17  48.9  48.7 1021.1 27.6  1.022 -99.9 -99.99 -9.99
2019/11/15 11:18 EST    2.93   3.34   14  243   17  49.1  48.9 1021.0 27.6  1.022 -99.9 -99.99 -9.99
2019/11/15 11:24 EST    2.83   3.24   10  251   15  49.3  48.9 1020.9 27.6  1.022 -99.9 -99.99 -9.99
2019/11/15 11:30 EST    2.73   3.12   11  245   16  49.5  48.9 1020.8 27.7  1.022 -99.9 -99.99 -9.99
2019/11/15 11:36 EST    2.62   2.98   13  222   17  49.3  49.1 1020.5 27.6  1.022 -99.9 -99.99 -9.99
2019/11/15 11:42 EST    2.51   2.88   16  221   19  49.5  49.1 1020.3 27.7  1.022 -99.9 -99.99 -9.99
2019/11/15 11:48 EST    2.40   2.77   12  235   19  49.6  49.1 1020.2 27.7  1.022 -99.9 -99.99 -9.99
2019/11/15 11:54 EST    2.29   2.61   12  235   16  49.6  49.1 1020.1 27.7  1.022 -99.9 -99.99 -9.99
2019/11/15 12:00 EST    2.18   2.46   16  226   18  49.8  48.9 1019.9 27.7  1.022 -99.9 -99.99 -9.99
2019/11/15 12:06 EST    2.07   2.39   16  224   19  49.5  49.1 1019.8 27.7  1.022 -99.9 -99.99 -9.99
2019/11/15 12:12 EST    1.96   2.24   11  240   20  50.0  49.1 1019.7 27.7  1.022 -99.9 -99.99 -9.99
2019/11/15 12:18 EST    1.85   2.10   16  227   19  49.8  48.7 1019.6 27.8  1.022 -99.9 -99.99 -9.99
2019/11/15 12:24 EST    1.74   2.00   13  232   17  50.0  48.6 1019.4 27.7  1.022 -99.9 -99.99 -9.99
2019/11/15 12:30 EST    1.64   1.88   15  230   19  50.0  48.6 1019.4 27.5  1.022 -99.9 -99.99 -9.99
2019/11/15 12:36 EST    1.53   1.73   16  229   19  50.0  48.4 1019.2 27.6  1.022 -99.9 -99.99 -9.99
2019/11/15 12:42 EST    1.42   1.58   16  235   19  50.5  48.4 1019.0 27.5  1.022 -99.9 -99.99 -9.99
2019/11/15 12:48 EST    1.32   1.50   13  239   20  50.5  48.4 1019.0 27.5  1.022 -99.9 -99.99 -9.99
2019/11/15 12:54 EST    1.22   1.39   14  236   17  50.7  48.4 1018.9 27.6  1.022 -99.9 -99.99 -9.99
2019/11/15 13:00 EST    1.12   1.25   15  238   21  50.9  48.6 1018.9 27.6  1.022 -99.9 -99.99 -9.99
2019/11/15 13:06 EST    1.03   1.11   15  237   19  50.9  48.6 1018.8 27.6  1.022 -99.9 -99.99 -9.99
2019/11/15 13:12 EST    0.94   1.03   14  219   18  51.1  48.6 1018.8 27.6  1.022 -99.9 -99.99 -9.99
2019/11/15 13:18 EST    0.85   0.94   14  235   23  50.9  48.6 1018.8 27.6  1.022 -99.9 -99.99 -9.99
2019/11/15 13:24 EST    0.76   0.84   14  235   20  50.9  48.4 1018.7 27.6  1.022 -99.9 -99.99 -9.99
2019/11/15 13:30 EST    0.68   0.77   14  239   17  51.3  48.4 1018.6 27.6  1.022 -99.9 -99.99 -9.99
2019/11/15 13:36 EST    0.61   0.66   12  243   18  51.1  48.4 1018.7 27.6  1.022 -99.9 -99.99 -9.99
2019/11/15 13:42 EST    0.54   0.58   14  239   17  50.7  48.4 1018.6 27.6  1.022 -99.9 -99.99 -9.99
2019/11/15 13:48 EST    0.47   0.53   13  244   19  50.9  48.4 1018.6 27.5  1.022 -99.9 -99.99 -9.99
2019/11/15 13:54 EST    0.41   0.49    9  250   16  50.9  48.2 1018.6 27.6  1.022 -99.9 -99.99 -9.99
2019/11/15 14:00 EST    0.35   0.44   12  247   18  50.9  48.2 1018.5 27.5  1.022 -99.9 -99.99 -9.99
2019/11/15 14:06 EST    0.30   0.36   13  232   16  50.4  48.2 1018.6 27.5  1.022 -99.9 -99.99 -9.99
2019/11/15 14:12 EST    0.25   0.34   11  239   17  50.4  48.2 1018.5 27.6  1.022 -99.9 -99.99 -9.99
2019/11/15 14:18 EST    0.21   0.31   11  240   16  50.7  48.2 1018.5 27.5  1.022 -99.9 -99.99 -9.99
2019/11/15 14:24 EST    0.17   0.29   12  238   16  50.5  48.2 1018.4 27.6  1.022 -99.9 -99.99 -9.99
2019/11/15 14:30 EST    0.14   0.25    9  254   17  50.7  48.2 1018.5 27.6  1.022 -99.9 -99.99 -9.99
2019/11/15 14:36 EST    0.11   0.25   12  236   15  50.4  48.2 1018.5 27.6  1.022 -99.9 -99.99 -9.99
2019/11/15 14:42 EST    0.09   0.23   11  233   13  50.2  48.4 1018.3 27.5  1.022 -99.9 -99.99 -9.99
2019/11/15 14:48 EST    0.08   0.18   11  231   14  50.2  48.4 1018.0 27.5  1.022 -99.9 -99.99 -9.99
2019/11/15 14:54 EST    0.07   0.20   14  228   16  50.2  48.4 1017.9 27.5  1.022 -99.9 -99.99 -9.99
2019/11/15 15:00 EST    0.06   0.24   14  230   16  50.2  48.4 1018.1 27.5  1.022 -99.9 -99.99 -9.99
2019/11/15 15:06 EST    0.06   0.25   14  228   17  50.0  48.4 1018.4 27.6  1.022 -99.9 -99.99 -9.99
2019/11/15 15:12 EST    0.06   0.24   13  228   15  50.4  48.4 1018.6 27.5  1.022 -99.9 -99.99 -9.99
2019/11/15 15:18 EST    0.07   0.22   13  229   15  50.2  48.2 1018.4 27.5  1.022 -99.9 -99.99 -9.99
2019/11/15 15:24 EST    0.08   0.26   11  235   17  49.8  48.4 1018.0 27.5  1.022 -99.9 -99.99 -9.99
2019/11/15 15:30 EST    0.09   0.27   13  238   15  49.8  48.2 1018.3 27.6  1.022 -99.9 -99.99 -9.99
2019/11/15 15:36 EST    0.11   0.26   13  238   16  49.8  48.4 1018.3 27.6  1.022 -99.9 -99.99 -9.99
2019/11/15 15:42 EST    0.13   0.31   12  233   16  49.6  48.2 1018.4 27.5  1.022 -99.9 -99.99 -9.99
2019/11/15 15:48 EST    0.16   0.33   12  238   16  49.6  48.2 1018.5 27.5  1.022 -99.9 -99.99 -9.99
2019/11/15 15:54 EST    0.18   0.36   10  235   13  49.5  48.2 1018.5 27.5  1.022 -99.9 -99.99 -9.99
2019/11/15 16:00 EST    0.21   0.39   10  243   12  49.5  48.2 1018.5 27.5  1.022 -99.9 -99.99 -9.99
2019/11/15 16:06 EST    0.24   0.38    8  238   12  48.9  48.2 1018.5 27.5  1.022 -99.9 -99.99 -9.99
2019/11/15 16:12 EST    0.28   0.41    8  242   11  48.9  48.0 1018.5 27.5  1.022 -99.9 -99.99 -9.99
2019/11/15 16:18 EST    0.32   0.47    8  238   10  48.7  48.0 1018.4 27.5  1.022 -99.9 -99.99 -9.99
2019/11/15 16:24 EST    0.35   0.51    8  237   10  48.6  48.0 1018.4 27.5  1.022 -99.9 -99.99 -9.99
2019/11/15 16:30 EST    0.39   0.55    9  237   10  48.4  48.0 1018.5 27.5  1.022 -99.9 -99.99 -9.99
2019/11/15 16:36 EST    0.43   0.55    8  237   10  48.2  47.8 1018.4 27.6  1.022 -99.9 -99.99 -9.99
2019/11/15 16:42 EST    0.47   0.56    9  234   11  48.0  47.7 1018.5 27.6  1.022 -99.9 -99.99 -9.99
2019/11/15 16:48 EST    0.52   0.61    9  234   11  47.8  47.8 1018.6 27.6  1.022 -99.9 -99.99 -9.99
2019/11/15 16:54 EST    0.56   0.66    8  237   11  47.7  47.5 1018.7 27.6  1.022 -99.9 -99.99 -9.99
2019/11/15 17:00 EST    0.61   0.73    8  240   11  47.5  47.3 1018.8 27.5  1.022 -99.9 -99.99 -9.99
2019/11/15 17:06 EST    0.65   0.81    6  251    9  47.1  47.1 1018.9 27.5  1.022 -99.9 -99.99 -9.99
2019/11/15 17:12 EST    0.70   0.87    4  259    7  46.9  47.1 1018.9 27.6  1.022 -99.9 -99.99 -9.99
2019/11/15 17:18 EST    0.75   0.94    4  260    7  46.9  47.1 1019.1 27.6  1.022 -99.9 -99.99 -9.99
2019/11/15 17:24 EST    0.80   0.98    4  255    7  46.9  47.1 1019.2 27.5  1.022 -99.9 -99.99 -9.99
2019/11/15 17:30 EST    0.85   1.05    5  253    8  46.8  46.9 1019.3 27.6  1.022 -99.9 -99.99 -9.99
2019/11/15 17:36 EST    0.90   1.09    8  241   10  46.6  47.1 1019.4 27.5  1.022 -99.9 -99.99 -9.99
2019/11/15 17:42 EST    0.95   1.14    9  237   11  46.6  46.9 1019.5 27.5  1.022 -99.9 -99.99 -9.99
2019/11/15 17:48 EST    1.00   1.18    7  253   11  46.4  46.8 1019.5 27.6  1.022 -99.9 -99.99 -9.99
2019/11/15 17:54 EST    1.06   1.22    7  253   10  46.4  46.8 1019.6 27.6  1.022 -99.9 -99.99 -9.99
2019/11/15 18:00 EST    1.11   1.32    6  253   10  46.2  46.8 1019.6 27.5  1.022 -99.9 -99.99 -9.99
2019/11/15 18:06 EST    1.17   1.39    6  251   11  46.0  46.8 1019.5 27.5  1.022 -99.9 -99.99 -9.99
2019/11/15 18:12 EST    1.23   1.45    4  263    8  45.9  46.8 1019.5 27.5  1.022 -99.9 -99.99 -9.99
2019/11/15 18:18 EST    1.29   1.51    4  261    9  45.9  46.6 1019.6 27.5  1.022 -99.9 -99.99 -9.99
2019/11/15 18:24 EST    1.36   1.56    5  264   11  45.9  46.6 1019.6 27.6  1.022 -99.9 -99.99 -9.99
2019/11/15 18:30 EST    1.42   1.66    4  259    9  45.9  46.8 1019.8 27.5  1.022 -99.9 -99.99 -9.99
2019/11/15 18:36 EST    1.49   1.73    4  261   10  45.7  46.8 1019.8 27.5  1.022 -99.9 -99.99 -9.99
2019/11/15 18:42 EST    1.56   1.80    4  261    9  45.5  46.8 1019.9 27.5  1.022 -99.9 -99.99 -9.99
2019/11/15 18:48 EST    1.63   1.85    4  272    8  45.3  46.8 1019.9 27.5  1.022 -99.9 -99.99 -9.99
2019/11/15 18:54 EST    1.70   1.91    4  279    8  45.1  46.6 1019.9 27.6  1.022 -99.9 -99.99 -9.99
2019/11/15 19:00 EST    1.78   1.99    4  284    7  45.0  46.6 1019.9 27.6  1.022 -99.9 -99.99 -9.99
2019/11/15 19:06 EST    1.85   2.06    5  285    7  44.8  46.8 1020.0 27.5  1.022 -99.9 -99.99 -9.99
2019/11/15 19:12 EST    1.93   2.12    5  283    8  44.4  46.6 1020.0 27.6  1.022 -99.9 -99.99 -9.99
2019/11/15 19:18 EST    2.01   2.17    4  281    8  44.2  46.8 1020.1 27.6  1.022 -99.9 -99.99 -9.99
2019/11/15 19:24 EST    2.09   2.25    3  278    5  44.1  46.8 1020.1 27.6  1.022 -99.9 -99.99 -9.99
2019/11/15 19:30 EST    2.18   2.35    3  276    5  43.9  46.8 1020.1 27.6  1.022 -99.9 -99.99 -9.99
2019/11/15 19:36 EST    2.26   2.45    3  272    4  43.9  46.6 1020.1 27.6  1.022 -99.9 -99.99 -9.99
2019/11/15 19:42 EST    2.34   2.52    3  272    5  43.7  46.6 1020.1 27.6  1.022 -99.9 -99.99 -9.99
2019/11/15 19:48 EST    2.42   2.58    3  276    5  43.7  46.4 1020.0 27.6  1.022 -99.9 -99.99 -9.99
2019/11/15 19:54 EST    2.51   2.65    2  271    4  43.5  46.4 1020.1 27.5  1.022 -99.9 -99.99 -9.99
2019/11/15 20:00 EST    2.59   2.71    3  281    6  43.7  46.4 1020.0 27.5  1.022 -99.9 -99.99 -9.99
2019/11/15 20:06 EST    2.67   2.77    3  283    5  43.3  46.4 1020.0 27.5  1.022 -99.9 -99.99 -9.99
2019/11/15 20:12 EST    2.75   2.82    3  283    5  43.2  46.4 1020.0 27.5  1.022 -99.9 -99.99 -9.99
2019/11/15 20:18 EST    2.83   2.89    2  282    4  43.2  46.4 1020.0 27.5  1.022 -99.9 -99.99 -9.99
2019/11/15 20:24 EST    2.90   2.94    3  283    4  43.2  46.4 1020.1 27.5  1.022 -99.9 -99.99 -9.99
2019/11/15 20:30 EST    2.97   3.01    3  289    4  43.0  46.6 1020.2 27.5  1.022 -99.9 -99.99 -9.99
2019/11/15 20:36 EST    3.04   3.08    3  281    4  43.0  46.9 1020.4 27.5  1.022 -99.9 -99.99 -9.99
2019/11/15 20:42 EST    3.11   3.13    4  282    5  42.8  47.3 1020.4 27.4  1.022 -99.9 -99.99 -9.99
2019/11/15 20:48 EST    3.17   3.14    4  280    5  42.8  47.5 1020.6 27.5  1.022 -99.9 -99.99 -9.99
2019/11/15 20:54 EST    3.23   3.16    4  276    5  42.8  47.5 1020.8 27.5  1.022 -99.9 -99.99 -9.99
2019/11/15 21:00 EST    3.28   3.20    3  276    4  42.8  46.9 1020.9 27.6  1.022 -99.9 -99.99 -9.99
2019/11/15 21:06 EST    3.33   3.24    3  275    5  43.0  46.8 1021.0 27.6  1.022 -99.9 -99.99 -9.99
2019/11/15 21:12 EST    3.37   3.29    4  285    7  43.2  46.6 1021.2 27.7  1.022 -99.9 -99.99 -9.99
2019/11/15 21:18 EST    3.41   3.34    6  290   10  43.3  46.8 1021.3 27.6  1.022 -99.9 -99.99 -9.99
2019/11/15 21:24 EST    3.44   3.34    6  287    9  43.3  46.6 1021.4 27.6  1.022 -99.9 -99.99 -9.99
2019/11/15 21:30 EST    3.46   3.33    7  289   10  43.3  46.8 1021.6 27.6  1.022 -99.9 -99.99 -9.99
2019/11/15 21:36 EST    3.48   3.34    6  290   10  43.3  46.9 1021.7 27.6  1.022 -99.9 -99.99 -9.99
2019/11/15 21:42 EST    3.49   3.36    7  293   10  43.3  47.1 1021.7 27.5  1.022 -99.9 -99.99 -9.99
2019/11/15 21:48 EST    3.50   3.37    5  300    9  43.3  46.8 1021.8 27.6  1.022 -99.9 -99.99 -9.99
2019/11/15 21:54 EST    3.50   3.37    6  305    9  43.2  46.8 1022.0 27.6  1.022 -99.9 -99.99 -9.99
2019/11/15 22:00 EST    3.49   3.35    7  315   10  42.8  46.8 1022.1 27.6  1.022 -99.9 -99.99 -9.99
2019/11/15 22:06 EST    3.47   3.34    6  320    8  42.4  46.8 1022.2 27.6  1.022 -99.9 -99.99 -9.99
2019/11/15 22:12 EST    3.45   3.34    6  323    9  42.3  47.1 1022.2 27.5  1.022 -99.9 -99.99 -9.99
2019/11/15 22:18 EST    3.42   3.33    7  327    9  42.3  47.3 1022.2 27.5  1.022 -99.9 -99.99 -9.99
2019/11/15 22:24 EST    3.39   3.32    7  329    9  42.1  47.3 1022.2 27.5  1.022 -99.9 -99.99 -9.99
2019/11/15 22:30 EST    3.35   3.28    7  321    9  41.9  47.3 1022.2 27.6  1.022 -99.9 -99.99 -9.99
2019/11/15 22:36 EST    3.30   3.25    7  327   10  41.7  47.7 1022.2 27.5  1.022 -99.9 -99.99 -9.99
2019/11/15 22:42 EST    3.24   3.19    6  328    9  41.4  47.3 1022.4 27.7  1.022 -99.9 -99.99 -9.99
2019/11/15 22:48 EST    3.18   3.11    6  327    8  41.4  47.5 1022.4 27.6  1.022 -99.9 -99.99 -9.99
2019/11/15 22:54 EST    3.12   3.06    5  327    8  41.2  47.7 1022.4 27.6  1.022 -99.9 -99.99 -9.99
2019/11/15 23:00 EST    3.05   3.02    6  325    8  41.2  47.8 1022.5 27.6  1.022 -99.9 -99.99 -9.99
2019/11/15 23:06 EST    2.97   2.92    7  327    9  41.0  48.0 1022.5 27.5  1.022 -99.9 -99.99 -9.99
2019/11/15 23:12 EST    2.89   2.79    7  324    9  41.2  48.6 1022.7 27.4  1.022 -99.9 -99.99 -9.99
2019/11/15 23:18 EST    2.80   2.69    7  320    9  41.4  48.9 1022.8 27.4  1.022 -99.9 -99.99 -9.99
2019/11/15 23:24 EST    2.71   2.62    8  322   11  41.2  49.1 1022.7 27.5  1.022 -99.9 -99.99 -9.99
2019/11/15 23:30 EST    2.62   2.53    8  316   11  41.2  49.3 1022.6 27.5  1.022 -99.9 -99.99 -9.99
2019/11/15 23:36 EST    2.52   2.43    6  322   11  41.0  49.5 1022.6 27.5  1.022 -99.9 -99.99 -9.99
2019/11/15 23:42 EST    2.42   2.34    6  323    9  41.0  49.6 1022.5 27.6  1.022 -99.9 -99.99 -9.99
2019/11/15 23:48 EST    2.32   2.26    6  321   12  40.8  49.8 1022.6 27.6  1.022 -99.9 -99.99 -9.99
2019/11/15 23:54 EST    2.22   2.16    6  320    9  40.6  49.8 1022.7 27.7  1.022 -99.9 -99.99 -9.99
2019/11/16 00:00 EST    2.11   2.06    5  318    8  40.5  50.0 1022.8 27.7  1.022 -99.9 -99.99 -9.99
2019/11/16 00:06 EST    2.00   1.94    5  311    7  40.5  49.8 1022.9 27.9  1.022 -99.9 -99.99 -9.99
2019/11/16 00:12 EST    1.89   1.80    4  315    6  40.3  50.0 1022.8 27.8  1.022 -99.9 -99.99 -9.99
2019/11/16 00:18 EST    1.78   1.65    4  316    6  40.3  50.0 1023.0 27.9  1.022 -99.9 -99.99 -9.99
2019/11/16 00:24 EST    1.67   1.56    3  306    5  40.1  50.0 1023.0 27.9  1.022 -99.9 -99.99 -9.99
2019/11/16 00:30 EST    1.56   1.46    4  310    5  40.1  50.2 1023.1 27.8  1.022 -99.9 -99.99 -9.99
2019/11/16 00:36 EST    1.45   1.34    4  316    5  39.9  50.2 1023.1 27.7  1.022 -99.9 -99.99 -9.99
2019/11/16 00:42 EST    1.34   1.19    4  307    6  39.7  50.2 1023.1 27.9  1.022 -99.9 -99.99 -9.99
2019/11/16 00:48 EST    1.24   1.07    3  306    4  39.6  50.2 1023.2 27.9  1.022 -99.9 -99.99 -9.99
2019/11/16 00:54 EST    1.13   0.95    4  303    6  39.6  50.2 1023.2 27.9  1.022 -99.9 -99.99 -9.99
2019/11/16 01:00 EST    1.03   0.82    4  309    6  39.6  50.2 1023.3 27.9  1.022 -99.9 -99.99 -9.99
2019/11/16 01:06 EST    0.93   0.71    4  314    7  39.6  50.2 1023.4 27.9  1.022 -99.9 -99.99 -9.99
2019/11/16 01:12 EST    0.83   0.61    4  315    6  39.4  50.2 1023.3 28.0  1.022 -99.9 -99.99 -9.99
2019/11/16 01:18 EST    0.73   0.48    4  314    6  38.8  50.2 1023.4 27.8  1.022 -99.9 -99.99 -9.99
2019/11/16 01:24 EST    0.64   0.36    4  316    6  38.7  50.2 1023.4 28.0  1.022 -99.9 -99.99 -9.99
2019/11/16 01:30 EST    0.56   0.25    4  319    5  38.7  49.6 1023.6 28.1  1.023 -99.9 -99.99 -9.99
2019/11/16 01:36 EST    0.47   0.15    4  327    5  38.3  49.6 1023.6 28.0  1.022 -99.9 -99.99 -9.99
2019/11/16 01:42 EST    0.40   0.05    5  320    7  38.3  49.6 1023.6 28.0  1.022 -99.9 -99.99 -9.99
2019/11/16 01:48 EST    0.32  -0.06    7  327    9  38.3  48.9 1023.6 27.9  1.022 -99.9 -99.99 -9.99
2019/11/16 01:54 EST    0.26  -0.14    7  328    9  38.5  48.7 1023.6 28.1  1.023 -99.9 -99.99 -9.99
2019/11/16 02:00 EST    0.19  -0.23    7  335    9  38.7  48.4 1023.8 28.0  1.023 -99.9 -99.99 -9.99
2019/11/16 02:06 EST    0.14  -0.29    7  335    9  38.8  48.0 1023.8 28.0  1.023 -99.9 -99.99 -9.99
2019/11/16 02:12 EST    0.09  -0.35    8  339   12  39.0  47.8 1024.0 27.9  1.023 -99.9 -99.99 -9.99
2019/11/16 02:18 EST    0.04  -0.42   12  350   15  39.2  47.5 1024.1 27.8  1.022 -99.9 -99.99 -9.99
2019/11/16 02:24 EST    0.00  -0.48   16  356   19  39.4  47.5 1024.2 27.8  1.022 -99.9 -99.99 -9.99
2019/11/16 02:30 EST   -0.03  -0.54   19  354   24  39.4  47.8 1024.3 27.8  1.022 -99.9 -99.99 -9.99
2019/11/16 02:36 EST   -0.05  -0.57   17  355   24  39.0  48.0 1024.4 27.8  1.022 -99.9 -99.99 -9.99
2019/11/16 02:42 EST   -0.07  -0.58   18  355   24  38.8  48.0 1024.6 27.8  1.022 -99.9 -99.99 -9.99
2019/11/16 02:48 EST   -0.09  -0.62   19  350   25  38.7  48.0 1024.7 27.8  1.022 -99.9 -99.99 -9.99
2019/11/16 02:54 EST   -0.09  -0.63   21  351   26  38.5  48.2 1024.8 27.7  1.022 -99.9 -99.99 -9.99
2019/11/16 03:00 EST   -0.09  -0.65   17  350   23  38.3  48.2 1025.0 27.8  1.022 -99.9 -99.99 -9.99
2019/11/16 03:06 EST   -0.09  -0.67   14  357   20  37.9  48.4 1025.2 27.8  1.022 -99.9 -99.99 -9.99
2019/11/16 03:12 EST   -0.08  -0.67   18  358   24  37.9  48.6 1025.3 27.9  1.022 -99.9 -99.99 -9.99
2019/11/16 03:18 EST   -0.06  -0.65   14  350   21  37.6  48.7 1025.5 27.8  1.022 -99.9 -99.99 -9.99
2019/11/16 03:24 EST   -0.03  -0.62   16  352   20  37.2  48.6 1025.5 27.8  1.022 -99.9 -99.99 -9.99
2019/11/16 03:30 EST   -0.01  -0.62   16  351   20  37.0  48.4 1025.6 27.8  1.022 -99.9 -99.99 -9.99
2019/11/16 03:36 EST    0.03  -0.59   13  341   19  36.9  48.7 1025.7 27.7  1.022 -99.9 -99.99 -9.99
2019/11/16 03:42 EST    0.07  -0.58   11  345   18  36.3  48.7 1025.9 27.8  1.022 -99.9 -99.99 -9.99
2019/11/16 03:48 EST    0.11  -0.55   14  355   21  36.3  48.6 1026.0 27.8  1.022 -99.9 -99.99 -9.99
2019/11/16 03:54 EST    0.16  -0.49   20  354   28  36.3  48.7 1026.1 27.7  1.022 -99.9 -99.99 -9.99
2019/11/16 04:00 EST    0.21  -0.40   21    9   27  36.1  48.4 1026.2 27.8  1.022 -99.9 -99.99 -9.99
2019/11/16 04:06 EST    0.26  -0.34   21    3   30  35.6  48.2 1026.5 27.7  1.022 -99.9 -99.99 -9.99
2019/11/16 04:12 EST    0.32  -0.29   23  351   30  35.1  48.2 1026.5 27.7  1.022 -99.9 -99.99 -9.99
2019/11/16 04:18 EST    0.38  -0.26   22  350   27  34.9  48.2 1026.9 27.7  1.022 -99.9 -99.99 -9.99
2019/11/16 04:24 EST    0.44  -0.20   23  355   28  34.5  48.0 1026.9 27.7  1.022 -99.9 -99.99 -9.99
2019/11/16 04:30 EST    0.51  -0.14   21  356   27  34.2  48.2 1027.1 27.7  1.022 -99.9 -99.99 -9.99
2019/11/16 04:36 EST    0.57  -0.11   19  352   24  33.6  48.0 1027.3 27.8  1.022 -99.9 -99.99 -9.99
2019/11/16 04:42 EST    0.64  -0.05   17  351   26  33.4  48.0 1027.4 27.8  1.022 -99.9 -99.99 -9.99
2019/11/16 04:48 EST    0.71   0.01   20  353   26  33.1  48.0 1027.3 27.7  1.022 -99.9 -99.99 -9.99
2019/11/16 04:54 EST    0.78   0.05   15  349   24  32.9  47.7 1027.6 27.7  1.022 -99.9 -99.99 -9.99
2019/11/16 05:00 EST    0.85   0.09   18  356   22  32.5  47.8 1027.6 27.7  1.022 -99.9 -99.99 -9.99
2019/11/16 05:06 EST    0.92   0.15   16  348   24  32.4  47.3 1027.7 27.7  1.022 -99.9 -99.99 -9.99
2019/11/16 05:12 EST    0.99   0.23   15  349   24  32.2  47.5 1027.8 27.7  1.022 -99.9 -99.99 -9.99
2019/11/16 05:18 EST    1.06   0.36   18  350   25  31.8  47.3 1027.9 27.7  1.022 -99.9 -99.99 -9.99
2019/11/16 05:24 EST    1.13   0.43   22  358   28  31.8  47.3 1028.0 27.7  1.022 -99.9 -99.99 -9.99
2019/11/16 05:30 EST    1.20   0.46   19  349   29  31.6  47.5 1028.2 27.7  1.022 -99.9 -99.99 -9.99
2019/11/16 05:36 EST    1.27   0.54   20  359   26  31.5  47.3 1028.4 27.7  1.022 -99.9 -99.99 -9.99
2019/11/16 05:42 EST    1.34   0.63   21  357   25  31.1  47.1 1028.4 27.7  1.022 -99.9 -99.99 -9.99
2019/11/16 05:48 EST    1.41   0.66   22  357   30  30.9  46.9 1028.6 27.7  1.022 -99.9 -99.99 -9.99
2019/11/16 05:54 EST    1.48   0.72   17  350   27  30.7  46.8 1028.8 27.7  1.022 -99.9 -99.99 -9.99
2019/11/16 06:00 EST    1.55   0.77   17  355   24  30.7  46.8 1029.0 27.5  1.022 -99.9 -99.99 -9.99
2019/11/16 06:06 EST    1.62   0.80   18  359   24  30.7  46.8 1029.2 27.7  1.022 -99.9 -99.99 -9.99
2019/11/16 06:12 EST    1.69   0.83   19  355   26  30.4  46.8 1029.4 27.6  1.022 -99.9 -99.99 -9.99
2019/11/16 06:18 EST    1.76   0.89   19  358   24  30.4  46.6 1029.6 27.7  1.022 -99.9 -99.99 -9.99
2019/11/16 06:24 EST    1.83   0.99   17  357   22  30.4  46.8 1030.0 27.6  1.022 -99.9 -99.99 -9.99
2019/11/16 06:30 EST    1.90   1.09   20    8   25  30.6  46.8 1029.8 27.6  1.022 -99.9 -99.99 -9.99
2019/11/16 06:36 EST    1.97   1.16   15  359   26  30.2  46.8 1030.2 27.7  1.022 -99.9 -99.99 -9.99
2019/11/16 06:42 EST    2.03   1.24   19  360   23  30.4  46.9 1030.3 27.6  1.022 -99.9 -99.99 -9.99
2019/11/16 06:48 EST    2.10   1.32   20   12   24  30.4  46.9 1030.6 27.6  1.022 -99.9 -99.99 -9.99
2019/11/16 06:54 EST    2.17   1.37   21    7   25  30.0  46.9 1030.6 27.7  1.022 -99.9 -99.99 -9.99
2019/11/16 07:00 EST    2.25   1.44   20   14   24  30.4  46.9 1030.9 27.7  1.022 -99.9 -99.99 -9.99
2019/11/16 07:06 EST    2.32   1.53   18    3   24  30.2  47.3 1031.0 27.6  1.022 -99.9 -99.99 -9.99
2019/11/16 07:12 EST    2.39   1.62   16    1   23  30.0  47.3 1031.3 27.7  1.022 -99.9 -99.99 -9.99
2019/11/16 07:18 EST    2.46   1.70   11  356   21  30.2  47.3 1031.5 27.7  1.022 -99.9 -99.99 -9.99
2019/11/16 07:24 EST    2.54   1.73   15  356   19  29.8  47.5 1031.6 27.7  1.022 -99.9 -99.99 -9.99
2019/11/16 07:30 EST    2.61   1.79   16  360   21  29.7  47.3 1031.6 27.7  1.022 -99.9 -99.99 -9.99
2019/11/16 07:36 EST    2.68   1.87   17    2   24  29.7  46.9 1031.5 27.8  1.022 -99.9 -99.99 -9.99
2019/11/16 07:42 EST    2.76   1.93   16  356   22  29.8  47.3 1031.6 27.7  1.022 -99.9 -99.99 -9.99
2019/11/16 07:48 EST    2.83   2.05   18    7   22  29.5  47.8 1031.5 27.6  1.022 -99.9 -99.99 -9.99
2019/11/16 07:54 EST    2.91   2.15   19    6   25  29.7  48.0 1031.5 27.6  1.022 -99.9 -99.99 -9.99
2019/11/16 08:00 EST    2.98   2.23   19    7   25  29.7  48.0 1031.5 27.7  1.022 -99.9 -99.99 -9.99
2019/11/16 08:06 EST    3.06   2.31   20    1   25  29.7  48.0 1031.5 27.7  1.022 -99.9 -99.99 -9.99
2019/11/16 08:12 EST    3.13   2.39   19    1   24  29.5  48.0 1031.7 27.8  1.022 -99.9 -99.99 -9.99
2019/11/16 08:18 EST    3.21   2.47   20  358   23  29.7  48.2 1031.6 27.7  1.022 -99.9 -99.99 -9.99
2019/11/16 08:24 EST    3.28   2.63   18    7   25  30.0  48.2 1031.9 27.7  1.022 -99.9 -99.99 -9.99
2019/11/16 08:30 EST    3.35   2.72   19   11   23  30.0  48.2 1031.8 27.7  1.022 -99.9 -99.99 -9.99
2019/11/16 08:36 EST    3.42   2.79   19    5   25  29.8  48.2 1032.0 27.7  1.022 -99.9 -99.99 -9.99
2019/11/16 08:42 EST    3.48   2.87   18    8   25  30.0  48.0 1031.9 27.8  1.022 -99.9 -99.99 -9.99
2019/11/16 08:48 EST    3.55   2.95   21   10   25  30.2  48.0 1031.9 27.8  1.022 -99.9 -99.99 -9.99
2019/11/16 08:54 EST    3.61   3.01   19    8   25  30.0  48.0 1031.9 27.8  1.022 -99.9 -99.99 -9.99
2019/11/16 09:00 EST    3.67   3.05   19    9   25  30.2  48.0 1031.9 27.8  1.022 -99.9 -99.99 -9.99
2019/11/16 09:06 EST    3.72   3.16   17    5   24  30.6  48.0 1032.0 27.8  1.022 -99.9 -99.99 -9.99
2019/11/16 09:12 EST    3.77   3.21   17    5   22  30.4  48.0 1031.9 27.8  1.022 -99.9 -99.99 -9.99
2019/11/16 09:18 EST    3.82   3.29   19    6   24  31.1  48.0 1032.0 27.8  1.022 -99.9 -99.99 -9.99
2019/11/16 09:24 EST    3.86   3.38   16    6   23  31.1  48.0 1032.1 27.8  1.022 -99.9 -99.99 -9.99
2019/11/16 09:30 EST    3.90   3.45   17   15   23  31.3  48.0 1032.1 27.8  1.022 -99.9 -99.99 -9.99
2019/11/16 09:36 EST    3.93   3.49   15    0   21  31.5  48.0 1032.1 27.8  1.022 -99.9 -99.99 -9.99
2019/11/16 09:42 EST    3.95   3.56   18   17   21  31.1  48.0 1032.1 27.8  1.022 -99.9 -99.99 -9.99
2019/11/16 09:48 EST    3.98   3.62   19    9   23  31.6  48.0 1032.0 27.8  1.022 -99.9 -99.99 -9.99
2019/11/16 09:54 EST    3.99   3.67   20   18   23  32.2  48.0 1032.1 27.8  1.022 -99.9 -99.99 -9.99
2019/11/16 10:00 EST    4.00   3.65   19   18   23  31.6  48.0 1032.0 27.7  1.022 -99.9 -99.99 -9.99
2019/11/16 10:06 EST    4.00   3.68   19   17   24  32.0  47.5 1031.9 27.8  1.022 -99.9 -99.99 -9.99
2019/11/16 10:12 EST    4.00   3.71   18   13   22  31.6  47.7 1031.9 27.7  1.022 -99.9 -99.99 -9.99
2019/11/16 10:18 EST    3.99   3.73   20   18   24  32.2  47.7 1031.8 27.7  1.022 -99.9 -99.99 -9.99
2019/11/16 10:24 EST    3.98   3.75   17   19   23  32.9  47.3 1031.9 27.8  1.022 -99.9 -99.99 -9.99
2019/11/16 10:30 EST    3.95   3.69   18    8   22  32.7  47.3 1031.8 27.7  1.022 -99.9 -99.99 -9.99
2019/11/16 10:36 EST    3.93   3.69   18   13   24  33.3  47.3 1031.8 27.7  1.022 -99.9 -99.99 -9.99
2019/11/16 10:42 EST    3.89   3.66   19   16   24  33.3  47.3 1031.7 27.7  1.022 -99.9 -99.99 -9.99
2019/11/16 10:48 EST    3.85   3.66   16   12   22  34.2  47.3 1031.7 27.7  1.022 -99.9 -99.99 -9.99
2019/11/16 10:54 EST    3.81   3.64   18   12   24  33.6  47.3 1031.5 27.7  1.022 -99.9 -99.99 -9.99
2019/11/16 11:00 EST    3.76   3.62   17    9   22  34.3  47.3 1031.6 27.7  1.022 -99.9 -99.99 -9.99
2019/11/16 11:06 EST    3.70   3.55   18   19   22  34.7  47.3 1031.4 27.7  1.022 -99.9 -99.99 -9.99
2019/11/16 11:12 EST    3.64   3.49   20   21   24  35.1  47.3 1031.6 27.7  1.022 -99.9 -99.99 -9.99
2019/11/16 11:18 EST    3.57   3.45   18   22   23  34.7  47.3 1031.7 27.7  1.022 -99.9 -99.99 -9.99
2019/11/16 11:24 EST    3.50   3.41   18   23   22  34.7  47.3 1031.7 27.7  1.022 -99.9 -99.99 -9.99
2019/11/16 11:30 EST    3.42   3.30   19   14   25  35.4  47.5 1031.6 27.6  1.022 -99.9 -99.99 -9.99
2019/11/16 11:36 EST    3.34   3.30   20   14   26  35.1  47.5 1031.6 27.6  1.022 -99.9 -99.99 -9.99
2019/11/16 11:42 EST    3.25   3.21   20   17   25  35.2  47.5 1031.6 27.6  1.022 -99.9 -99.99 -9.99
2019/11/16 11:48 EST    3.17   3.13   22   22   25  34.9  47.5 1031.6 27.6  1.022 -99.9 -99.99 -9.99
2019/11/16 11:54 EST    3.07   3.04   21   18   25  35.4  47.3 1031.6 27.6  1.022 -99.9 -99.99 -9.99
2019/11/16 12:00 EST    2.98   2.95   21   26   26  35.1  47.5 1031.5 27.6  1.022 -99.9 -99.99 -9.99
2019/11/16 12:06 EST    2.88   2.84   21   18   26  35.6  47.5 1031.4 27.6  1.022 -99.9 -99.99 -9.99
2019/11/16 12:12 EST    2.78   2.71   19   19   25  36.0  47.5 1031.3 27.6  1.022 -99.9 -99.99 -9.99
2019/11/16 12:18 EST    2.68   2.65   21   32   26  35.2  47.5 1031.2 27.6  1.022 -99.9 -99.99 -9.99
2019/11/16 12:24 EST    2.57   2.58   17   13   22  35.6  47.5 1031.1 27.6  1.022 -99.9 -99.99 -9.99
2019/11/16 12:30 EST    2.47   2.48   17   23   20  36.3  47.5 1031.1 27.6  1.022 -99.9 -99.99 -9.99
2019/11/16 12:36 EST    2.36   2.34   19   28   25  36.0  47.5 1031.1 27.6  1.022 -99.9 -99.99 -9.99
2019/11/16 12:42 EST    2.25   2.22   18   21   22  35.6  47.7 1030.9 27.6  1.022 -99.9 -99.99 -9.99
2019/11/16 12:48 EST    2.14   2.10   18    8   22  36.3  47.5 1031.0 27.7  1.022 -99.9 -99.99 -9.99
2019/11/16 12:54 EST    2.03   1.99   20   11   23  36.0  47.5 1031.0 27.6  1.022 -99.9 -99.99 -9.99
2019/11/16 13:00 EST    1.93   1.87   19   15   23  36.5  47.5 1031.0 27.6  1.022 -99.9 -99.99 -9.99
2019/11/16 13:06 EST    1.82   1.78   19   16   23  36.1  47.5 1031.0 27.6  1.022 -99.9 -99.99 -9.99
2019/11/16 13:12 EST    1.71   1.67   18   23   26  36.3  47.5 1031.2 27.6  1.022 -99.9 -99.99 -9.99
2019/11/16 13:18 EST    1.61   1.52   18   21   22  36.1  47.5 1031.0 27.6  1.022 -99.9 -99.99 -9.99
2019/11/16 13:24 EST    1.51   1.39   17   24   22  36.5  47.5 1030.9 27.6  1.022 -99.9 -99.99 -9.99
2019/11/16 13:30 EST    1.41   1.32   19   12   23  36.3  47.5 1030.8 27.6  1.022 -99.9 -99.99 -9.99
2019/11/16 13:36 EST    1.31   1.26   20   21   24  36.3  47.3 1030.8 27.6  1.022 -99.9 -99.99 -9.99
2019/11/16 13:42 EST    1.21   1.18   19   15   22  36.5  47.3 1030.9 27.6  1.022 -99.9 -99.99 -9.99
2019/11/16 13:48 EST    1.12   1.05   19   22   21  36.3  47.3 1030.9 27.6  1.022 -99.9 -99.99 -9.99
2019/11/16 13:54 EST    1.03   0.92   16   15   20  36.3  46.9 1030.9 27.5  1.022 -99.9 -99.99 -9.99
2019/11/16 14:00 EST    0.94   0.84   16   19   19  36.3  47.1 1030.7 27.5  1.022 -99.9 -99.99 -9.99
2019/11/16 14:06 EST    0.86   0.76   17   25   21  36.5  46.9 1030.8 27.6  1.022 -99.9 -99.99 -9.99
2019/11/16 14:12 EST    0.78   0.73   17   29   23  36.5  46.9 1030.9 27.5  1.022 -99.9 -99.99 -9.99
2019/11/16 14:18 EST    0.71   0.74   19   31   22  36.9  47.1 1030.7 27.4  1.022 -99.9 -99.99 -9.99
2019/11/16 14:24 EST    0.64   0.59   19   27   22  36.7  47.1 1030.7 27.5  1.022 -99.9 -99.99 -9.99
2019/11/16 14:30 EST    0.57   0.46   19   28   23  36.7  47.3 1030.6 27.5  1.022 -99.9 -99.99 -9.99
2019/11/16 14:36 EST    0.51   0.46   19   31   22  36.7  47.1 1030.6 27.5  1.022 -99.9 -99.99 -9.99
2019/11/16 14:42 EST    0.45   0.45   17   33   21  36.9  46.9 1030.5 27.5  1.022 -99.9 -99.99 -9.99
2019/11/16 14:48 EST    0.40   0.39   17   29   21  36.9  46.9 1030.5 27.4  1.022 -99.9 -99.99 -9.99
2019/11/16 14:54 EST    0.36   0.35   16   31   21  37.0  47.1 1030.5 27.3  1.022 -99.9 -99.99 -9.99
2019/11/16 15:00 EST    0.32   0.39   18   36   22  36.9  46.9 1030.5 27.4  1.022 -99.9 -99.99 -9.99
2019/11/16 15:06 EST    0.28   0.36   18   35   20  36.7  46.9 1030.5 27.4  1.022 -99.9 -99.99 -9.99
2019/11/16 15:12 EST    0.25   0.34   16   39   22  37.0  46.9 1030.7 27.4  1.022 -99.9 -99.99 -9.99
2019/11/16 15:18 EST    0.23   0.33   15   38   18  37.0  46.9 1031.0 27.3  1.022 -99.9 -99.99 -9.99
2019/11/16 15:24 EST    0.20   0.39   16   47   18  37.2  46.9 1031.0 27.3  1.022 -99.9 -99.99 -9.99
2019/11/16 15:30 EST    0.19   0.46   15   36   21  36.9  46.8 1031.0 27.5  1.022 -99.9 -99.99 -9.99
2019/11/16 15:36 EST    0.18   0.41   15   42   17  37.0  46.9 1031.0 27.5  1.022 -99.9 -99.99 -9.99
2019/11/16 15:42 EST    0.17   0.40   13   39   17  36.7  46.9 1031.3 27.4  1.022 -99.9 -99.99 -9.99
2019/11/16 15:48 EST    0.17   0.42   13   52   16  37.0  46.6 1031.5 27.5  1.022 -99.9 -99.99 -9.99
2019/11/16 15:54 EST    0.17   0.43   13   10   15  36.5  46.6 1031.5 27.5  1.022 -99.9 -99.99 -9.99
2019/11/16 16:00 EST    0.18   0.38   13    9   18  36.7  46.6 1031.6 27.5  1.022 -99.9 -99.99 -9.99
2019/11/16 16:06 EST    0.19   0.40   15    5   18  36.3  46.6 1031.5 27.6  1.022 -99.9 -99.99 -9.99
2019/11/16 16:12 EST    0.21   0.51   15   18   17  36.5  46.8 1031.5 27.5  1.022 -99.9 -99.99 -9.99
2019/11/16 16:18 EST    0.22   0.52   17   23   20  36.5  46.8 1031.4 27.5  1.022 -99.9 -99.99 -9.99
2019/11/16 16:24 EST    0.24   0.48   17   21   22  36.3  46.8 1031.5 27.5  1.022 -99.9 -99.99 -9.99
2019/11/16 16:30 EST    0.27   0.49   17   24   22  36.5  46.8 1031.5 27.5  1.022 -99.9 -99.99 -9.99
2019/11/16 16:36 EST    0.29   0.58   15   22   19  36.3  46.8 1031.6 27.5  1.022 -99.9 -99.99 -9.99
2019/11/16 16:42 EST    0.32   0.62   15   21   19  36.1  46.8 1031.8 27.5  1.022 -99.9 -99.99 -9.99
2019/11/16 16:48 EST    0.35   0.60   13   19   16  36.0  46.8 1031.8 27.5  1.022 -99.9 -99.99 -9.99
2019/11/16 16:54 EST    0.38   0.66   14   13   16  35.8  46.8 1031.8 27.5  1.022 -99.9 -99.99 -9.99
2019/11/16 17:00 EST    0.41   0.74   13   21   17  35.8  46.8 1031.8 27.4  1.022 -99.9 -99.99 -9.99
2019/11/16 17:06 EST    0.45   0.73   11    6   18  35.8  46.6 1031.7 27.5  1.022 -99.9 -99.99 -9.99
2019/11/16 17:12 EST    0.48   0.73   14   12   18  35.6  46.4 1031.6 27.5  1.022 -99.9 -99.99 -9.99
2019/11/16 17:18 EST    0.52   0.76   12   13   16  35.4  46.6 1031.6 27.4  1.022 -99.9 -99.99 -9.99
2019/11/16 17:24 EST    0.55   0.80   14   23   18  36.0  46.6 1031.6 27.4  1.022 -99.9 -99.99 -9.99
2019/11/16 17:30 EST    0.59   0.80   14   21   16  36.0  46.6 1031.7 27.4  1.022 -99.9 -99.99 -9.99
2019/11/16 17:36 EST    0.63   0.80   14   26   16  36.1  46.6 1031.9 27.3  1.022 -99.9 -99.99 -9.99
2019/11/16 17:42 EST    0.67   0.89   15   34   18  35.8  46.6 1031.9 27.3  1.022 -99.9 -99.99 -9.99
2019/11/16 17:48 EST    0.71   0.97   13   21   17  35.6  46.6 1032.0 27.3  1.022 -99.9 -99.99 -9.99
2019/11/16 17:54 EST    0.75   0.99   14   31   17  35.6  46.4 1032.3 27.3  1.022 -99.9 -99.99 -9.99
2019/11/16 18:00 EST    0.78   1.02   15   31   16  35.6  46.4 1032.4 27.3  1.022 -99.9 -99.99 -9.99
2019/11/16 18:06 EST    0.82   1.13   12   24   15  35.8  46.4 1032.4 27.3  1.022 -99.9 -99.99 -9.99
2019/11/16 18:12 EST    0.86   1.21   14   26   17  35.4  46.4 1032.4 27.2  1.022 -99.9 -99.99 -9.99
2019/11/16 18:18 EST    0.91   1.25   14   23   18  35.2  46.4 1032.4 27.2  1.022 -99.9 -99.99 -9.99
2019/11/16 18:24 EST    0.95   1.32   13   22   17  35.4  46.4 1032.4 27.2  1.022 -99.9 -99.99 -9.99
2019/11/16 18:30 EST    0.99   1.39   13    7   17  34.5  46.4 1032.4 27.2  1.022 -99.9 -99.99 -9.99
2019/11/16 18:36 EST    1.03   1.40   11   13   15  34.7  46.4 1032.4 27.2  1.022 -99.9 -99.99 -9.99
2019/11/16 18:42 EST    1.08   1.39   13   13   18  34.7  46.4 1032.5 27.2  1.022 -99.9 -99.99 -9.99
2019/11/16 18:48 EST    1.13   1.44   12   14   18  34.5  46.2 1032.6 27.3  1.022 -99.9 -99.99 -9.99
2019/11/16 18:54 EST    1.17   1.51   12    3   15  34.0  46.4 1032.6 27.2  1.022 -99.9 -99.99 -9.99
2019/11/16 19:00 EST    1.22   1.56   12    6   15  33.8  46.4 1032.7 27.2  1.022 -99.9 -99.99 -9.99
2019/11/16 19:06 EST    1.28   1.58   12    4   15  33.8  46.4 1032.6 27.2  1.022 -99.9 -99.99 -9.99
2019/11/16 19:12 EST    1.33   1.65   13    3   15  33.6  46.2 1032.6 27.3  1.022 -99.9 -99.99 -9.99
2019/11/16 19:18 EST    1.39   1.76   13    7   16  33.4  46.2 1032.6 27.2  1.022 -99.9 -99.99 -9.99
2019/11/16 19:24 EST    1.44   1.81   13    2   16  33.3  46.2 1032.7 27.2  1.022 -99.9 -99.99 -9.99
2019/11/16 19:30 EST    1.50   1.90   13    8   18  33.1  46.2 1032.7 27.2  1.022 -99.9 -99.99 -9.99
2019/11/16 19:36 EST    1.57   2.00   13    6   17  33.1  46.2 1032.8 27.2  1.022 -99.9 -99.99 -9.99
2019/11/16 19:42 EST    1.63   2.14   13    4   17  32.9  46.0 1032.9 27.3  1.022 -99.9 -99.99 -9.99
2019/11/16 19:48 EST    1.70   2.18   12    1   16  32.7  46.4 1032.9 27.2  1.022 -99.9 -99.99 -9.99
2019/11/16 19:54 EST    1.77   2.21   12    2   16  32.4  46.6 1032.9 27.2  1.022 -99.9 -99.99 -9.99
2019/11/16 20:00 EST    1.84   2.29   13    2   17  32.4  46.6 1032.8 27.3  1.022 -99.9 -99.99 -9.99
2019/11/16 20:06 EST    1.91   2.38   14    0   18  32.2  46.9 1032.7 27.3  1.022 -99.9 -99.99 -9.99
2019/11/16 20:12 EST    1.99   2.45   15    3   18  32.2  46.8 1032.7 27.5  1.022 -99.9 -99.99 -9.99
2019/11/16 20:18 EST    2.06   2.52   11  358   18  32.0  46.8 1032.8 27.4  1.022 -99.9 -99.99 -9.99
2019/11/16 20:24 EST    2.14   2.64   10  347   15  31.5  46.9 1032.7 27.4  1.022 -99.9 -99.99 -9.99
2019/11/16 20:30 EST    2.22   2.72   11  353   14  31.5  46.8 1032.8 27.5  1.022 -99.9 -99.99 -9.99
2019/11/16 20:36 EST    2.30   2.79   11  347   15  31.3  46.8 1032.9 27.4  1.022 -99.9 -99.99 -9.99
2019/11/16 20:42 EST    2.38   2.88    7  342   11  30.7  46.6 1032.9 27.5  1.022 -99.9 -99.99 -9.99
2019/11/16 20:48 EST    2.46   2.98    9  343   12  30.7  46.4 1032.8 27.4  1.022 -99.9 -99.99 -9.99
2019/11/16 20:54 EST    2.54   3.08   11  344   13  30.6  46.2 1032.8 27.4  1.022 -99.9 -99.99 -9.99
2019/11/16 21:00 EST    2.62   3.12    9  348   12  30.6  46.0 1032.7 27.4  1.022 -99.9 -99.99 -9.99
2019/11/16 21:06 EST    2.70   3.19   14  354   16  30.7  46.0 1032.4 27.4  1.022 -99.9 -99.99 -9.99
2019/11/16 21:12 EST    2.77   3.28   12  355   16  30.6  46.0 1032.5 27.3  1.022 -99.9 -99.99 -9.99
2019/11/16 21:18 EST    2.85   3.28   13  352   17  30.4  46.0 1032.3 27.3  1.022 -99.9 -99.99 -9.99
2019/11/16 21:24 EST    2.92   3.33   12  355   17  30.6  45.9 1032.2 27.3  1.022 -99.9 -99.99 -9.99
2019/11/16 21:30 EST    2.99   3.41   13  346   16  30.2  45.9 1032.4 27.3  1.022 -99.9 -99.99 -9.99
2019/11/16 21:36 EST    3.05   3.49   13  345   16  30.2  46.0 1032.3 27.2  1.022 -99.9 -99.99 -9.99
2019/11/16 21:42 EST    3.11   3.52   11  347   13  30.0  46.0 1032.4 27.3  1.022 -99.9 -99.99 -9.99
2019/11/16 21:48 EST    3.17   3.57   11  348   15  30.0  46.0 1032.4 27.3  1.022 -99.9 -99.99 -9.99
2019/11/16 21:54 EST    3.22   3.64   12  350   15  30.0  46.2 1032.3 27.2  1.022 -99.9 -99.99 -9.99
2019/11/16 22:00 EST    3.27   3.66   11  355   16  30.0  46.0 1032.3 27.3  1.022 -99.9 -99.99 -9.99
2019/11/16 22:06 EST    3.31   3.70   11  350   14  29.7  46.2 1032.5 27.3  1.022 -99.9 -99.99 -9.99
2019/11/16 22:12 EST    3.35   3.75   11  346   14  29.7  46.2 1032.5 27.3  1.022 -99.9 -99.99 -9.99
2019/11/16 22:18 EST    3.38   3.73   11  350   14  29.7  46.4 1032.6 27.3  1.022 -99.9 -99.99 -9.99
2019/11/16 22:24 EST    3.40   3.70    9  345   12  29.5  46.4 1032.4 27.3  1.022 -99.9 -99.99 -9.99
2019/11/16 22:30 EST    3.42   3.66   11  348   14  29.3  46.4 1032.2 27.4  1.022 -99.9 -99.99 -9.99
2019/11/16 22:36 EST    3.43   3.68   12  353   15  29.5  46.4 1032.0 27.4  1.022 -99.9 -99.99 -9.99
2019/11/16 22:42 EST    3.43   3.67   13  354   16  29.5  46.4 1032.0 27.4  1.022 -99.9 -99.99 -9.99
2019/11/16 22:48 EST    3.43   3.62   12  353   14  29.3  46.6 1032.2 27.4  1.022 -99.9 -99.99 -9.99
2019/11/16 22:54 EST    3.42   3.60   10  351   14  29.5  46.4 1032.2 27.5  1.022 -99.9 -99.99 -9.99
2019/11/16 23:00 EST    3.40   3.58   11  354   14  29.5  46.6 1032.1 27.4  1.022 -99.9 -99.99 -9.99
2019/11/16 23:06 EST    3.38   3.56   11  358   14  29.7  46.6 1032.1 27.5  1.022 -99.9 -99.99 -9.99
2019/11/16 23:12 EST    3.35   3.54   10  357   15  29.7  46.6 1032.0 27.4  1.022 -99.9 -99.99 -9.99
2019/11/16 23:18 EST    3.31   3.53   15    6   18  30.2  46.4 1031.9 27.5  1.022 -99.9 -99.99 -9.99
2019/11/16 23:24 EST    3.27   3.50   13    2   18  30.6  46.2 1031.8 27.5  1.022 -99.9 -99.99 -9.99
2019/11/16 23:30 EST    3.22   3.44   14    6   18  30.4  46.2 1031.7 27.5  1.022 -99.9 -99.99 -9.99
2019/11/16 23:36 EST    3.17   3.39   15    5   18  30.4  46.4 1031.6 27.4  1.022 -99.9 -99.99 -9.99
2019/11/16 23:42 EST    3.10   3.33   17    8   21  30.4  46.2 1031.5 27.5  1.022 -99.9 -99.99 -9.99
2019/11/16 23:48 EST    3.04   3.25   17   15   22  30.6  46.4 1031.5 27.4  1.022 -99.9 -99.99 -9.99
2019/11/16 23:54 EST    2.96   3.15   17    9   20  30.0  46.4 1031.4 27.5  1.022 -99.9 -99.99 -9.99
2019/11/17 00:00 EST    2.89   3.06   17   13   20  30.4  46.4 1031.4 27.4  1.022 -99.9 -99.99 -9.99
2019/11/17 00:06 EST    2.80   3.00   17   14   20  30.2  46.4 1031.5 27.4  1.022 -99.9 -99.99 -9.99
2019/11/17 00:12 EST    2.72   2.91   17    8   20  29.8  46.6 1031.4 27.4  1.022 -99.9 -99.99 -9.99
2019/11/17 00:18 EST    2.63   2.82   16   13   19  30.0  46.4 1031.6 27.4  1.022 -99.9 -99.99 -9.99
2019/11/17 00:24 EST    2.53   2.76   15    9   18  30.0  46.2 1031.6 27.4  1.022 -99.9 -99.99 -9.99
2019/11/17 00:30 EST    2.43   2.70   15   10   18  29.7  46.0 1031.7 27.4  1.022 -99.9 -99.99 -9.99
2019/11/17 00:36 EST    2.33   2.59   16    7   17  29.7  45.7 1031.6 27.4  1.022 -99.9 -99.99 -9.99
2019/11/17 00:42 EST    2.23   2.51   16   11   19  29.8  45.7 1031.6 27.3  1.022 -99.9 -99.99 -9.99
2019/11/17 00:48 EST    2.13   2.45   16   12   17  29.8  45.9 1031.5 27.3  1.022 -99.9 -99.99 -9.99
2019/11/17 00:54 EST    2.02   2.40   14    8   17  29.7  46.2 1031.4 27.3  1.022 -99.9 -99.99 -9.99
2019/11/17 01:00 EST    1.91   2.30   14    6   18  29.5  46.4 1031.3 27.3  1.022 -99.9 -99.99 -9.99
2019/11/17 01:06 EST    1.80   2.18   14    5   18  29.5  46.4 1031.2 27.4  1.022 -99.9 -99.99 -9.99
2019/11/17 01:12 EST    1.70   2.08   15    8   19  29.7  46.4 1031.2 27.4  1.022 -99.9 -99.99 -9.99
2019/11/17 01:18 EST    1.59   2.01   13    6   17  29.3  46.6 1031.1 27.4  1.022 -99.9 -99.99 -9.99
2019/11/17 01:24 EST    1.48   1.92   14    3   19  29.5  46.0 1030.9 27.5  1.022 -99.9 -99.99 -9.99
2019/11/17 01:30 EST    1.37   1.78   13    4   17  29.5  46.2 1030.9 27.4  1.022 -99.9 -99.99 -9.99
2019/11/17 01:36 EST    1.27   1.68   14    8   18  29.5  46.2 1031.0 27.4  1.022 -99.9 -99.99 -9.99
2019/11/17 01:42 EST    1.17   1.57   15   14   17  29.8  46.2 1031.1 27.4  1.022 -99.9 -99.99 -9.99
2019/11/17 01:48 EST    1.07   1.47   14    8   18  29.5  46.0 1031.2 27.4  1.022 -99.9 -99.99 -9.99
2019/11/17 01:54 EST    0.97   1.41   13   12   18  29.8  45.9 1031.1 27.3  1.022 -99.9 -99.99 -9.99
2019/11/17 02:00 EST    0.87   1.36   13    5   17  29.7  45.9 1030.9 27.4  1.022 -99.9 -99.99 -9.99
2019/11/17 02:06 EST    0.78   1.31   11  354   17  28.8  46.0 1031.0 27.3  1.022 -99.9 -99.99 -9.99
2019/11/17 02:12 EST    0.69   1.24   11   11   17  29.3  46.2 1030.8 27.2  1.022 -99.9 -99.99 -9.99
2019/11/17 02:18 EST    0.61   1.20   13    6   17  29.3  46.6 1030.6 27.3  1.022 -99.9 -99.99 -9.99
2019/11/17 02:24 EST    0.53   1.14   14    9   19  29.5  46.4 1030.6 27.4  1.022 -99.9 -99.99 -9.99
2019/11/17 02:30 EST    0.46   1.08   15    8   20  29.7  46.8 1030.4 27.4  1.022 -99.9 -99.99 -9.99
2019/11/17 02:36 EST    0.39   1.02   13    5   18  29.5  46.4 1030.5 27.5  1.022 -99.9 -99.99 -9.99
2019/11/17 02:42 EST    0.32   0.97   13    5   17  29.7  46.4 1030.5 27.4  1.022 -99.9 -99.99 -9.99
2019/11/17 02:48 EST    0.26   0.90   13   10   17  29.8  46.2 1030.6 27.4  1.022 -99.9 -99.99 -9.99
2019/11/17 02:54 EST    0.21   0.84   14    7   17  29.8  46.0 1030.5 27.5  1.022 -99.9 -99.99 -9.99
2019/11/17 03:00 EST    0.17   0.77   12  358   18  29.1  46.0 1030.3 27.4  1.022 -99.9 -99.99 -9.99
2019/11/17 03:06 EST    0.13   0.70   14    7   18  29.7  46.0 1030.2 27.4  1.022 -99.9 -99.99 -9.99
2019/11/17 03:12 EST    0.09   0.67    9  358   17  29.5  46.0 1030.2 27.4  1.022 -99.9 -99.99 -9.99
2019/11/17 03:18 EST    0.06   0.65    9  349   17  28.6  45.9 1030.2 27.5  1.022 -99.9 -99.99 -9.99
2019/11/17 03:24 EST    0.04   0.62   10  355   16  28.4  45.9 1030.0 27.5  1.022 -99.9 -99.99 -9.99
2019/11/17 03:30 EST    0.03   0.61   11  349   13  28.4  45.9 1030.0 27.5  1.022 -99.9 -99.99 -9.99
2019/11/17 03:36 EST    0.02   0.62   10  352   14  28.6  45.5 1030.2 27.5  1.022 -99.9 -99.99 -9.99
2019/11/17 03:42 EST    0.01   0.63   11  350   13  28.8  45.5 1030.2 27.4  1.022 -99.9 -99.99 -9.99
2019/11/17 03:48 EST    0.01   0.63   10  348   16  28.6  45.5 1030.4 27.4  1.022 -99.9 -99.99 -9.99
2019/11/17 03:54 EST    0.02   0.63   11  352   13  28.8  45.3 1030.5 27.4  1.022 -99.9 -99.99 -9.99
2019/11/17 04:00 EST    0.04   0.59   11  349   13  28.6  45.3 1030.4 27.4  1.022 -99.9 -99.99 -9.99
2019/11/17 04:06 EST    0.06   0.59   11  354   14  28.6  45.1 1030.4 27.5  1.022 -99.9 -99.99 -9.99
2019/11/17 04:12 EST    0.08   0.60   11  353   14  28.4  45.1 1030.4 27.4  1.022 -99.9 -99.99 -9.99
2019/11/17 04:18 EST    0.11   0.62   10  352   14  28.4  45.3 1030.4 27.4  1.022 -99.9 -99.99 -9.99
2019/11/17 04:24 EST    0.15   0.63   10  355   15  28.6  45.5 1030.5 27.4  1.022 -99.9 -99.99 -9.99
2019/11/17 04:30 EST    0.19   0.64   11  356   13  28.9  45.3 1030.5 27.5  1.022 -99.9 -99.99 -9.99
2019/11/17 04:36 EST    0.23   0.66   12  356   16  29.1  45.5 1030.5 27.4  1.022 -99.9 -99.99 -9.99
2019/11/17 04:42 EST    0.27   0.68   11  358   15  29.1  45.5 1030.4 27.4  1.022 -99.9 -99.99 -9.99
2019/11/17 04:48 EST    0.32   0.72   13  359   18  29.1  45.5 1030.2 27.4  1.022 -99.9 -99.99 -9.99
2019/11/17 04:54 EST    0.38   0.77   14    1   18  29.5  45.3 1030.0 27.4  1.022 -99.9 -99.99 -9.99
2019/11/17 05:00 EST    0.43   0.82   16    2   19  29.5  45.7 1029.9 27.4  1.022 -99.9 -99.99 -9.99
2019/11/17 05:06 EST    0.49   0.84   17    4   19  29.5  45.5 1029.9 27.4  1.022 -99.9 -99.99 -9.99
2019/11/17 05:12 EST    0.55   0.87   16    6   18  29.8  45.7 1029.8 27.4  1.022 -99.9 -99.99 -9.99
2019/11/17 05:18 EST    0.61   0.92   16    7   18  30.2  45.7 1029.8 27.4  1.022 -99.9 -99.99 -9.99
2019/11/17 05:24 EST    0.67   0.95   17   12   19  30.6  45.5 1029.7 27.4  1.022 -99.9 -99.99 -9.99
2019/11/17 05:30 EST    0.73   0.97   16    7   18  30.2  45.5 1029.7 27.4  1.022 -99.9 -99.99 -9.99
2019/11/17 05:36 EST    0.80   1.00   16    8   19  29.8  45.3 1029.7 27.4  1.022 -99.9 -99.99 -9.99
2019/11/17 05:42 EST    0.86   1.05   15    6   21  29.8  45.5 1029.5 27.4  1.022 -99.9 -99.99 -9.99
2019/11/17 05:48 EST    0.92   1.10   16    7   20  29.8  45.5 1029.5 27.4  1.022 -99.9 -99.99 -9.99
2019/11/17 05:54 EST    0.99   1.14   16    8   20  30.0  45.5 1029.4 27.4  1.022 -99.9 -99.99 -9.99
2019/11/17 06:00 EST    1.05   1.20   16    7   19  30.0  45.3 1029.4 27.4  1.022 -99.9 -99.99 -9.99
2019/11/17 06:06 EST    1.11   1.28   17    5   19  29.8  45.3 1029.4 27.4  1.022 -99.9 -99.99 -9.99
2019/11/17 06:12 EST    1.18   1.34   14    8   18  30.0  45.3 1029.5 27.4  1.022 -99.9 -99.99 -9.99
2019/11/17 06:18 EST    1.24   1.42   11  358   18  29.5  45.3 1029.5 27.4  1.022 -99.9 -99.99 -9.99
2019/11/17 06:24 EST    1.30   1.48   12    5   15  29.8  45.1 1029.5 27.4  1.022 -99.9 -99.99 -9.99
2019/11/17 06:30 EST    1.36   1.58   11    3   16  29.7  45.1 1029.5 27.4  1.022 -99.9 -99.99 -9.99
2019/11/17 06:36 EST    1.42   1.64   15   10   17  30.2  45.0 1029.6 27.5  1.022 -99.9 -99.99 -9.99
2019/11/17 06:42 EST    1.48   1.70   14    5   16  30.0  45.1 1029.6 27.4  1.022 -99.9 -99.99 -9.99
2019/11/17 06:48 EST    1.54   1.80   15    7   17  30.6  45.0 1029.6 27.5  1.022 -99.9 -99.99 -9.99
2019/11/17 06:54 EST    1.60   1.91   16   15   17  30.6  45.1 1029.7 27.4  1.022 -99.9 -99.99 -9.99
2019/11/17 07:00 EST    1.66   1.90   16   10   18  30.6  45.1 1029.9 27.4  1.022 -99.9 -99.99 -9.99
2019/11/17 07:06 EST    1.71   1.98   14   10   18  30.6  45.1 1029.9 27.4  1.022 -99.9 -99.99 -9.99
2019/11/17 07:12 EST    1.77   2.08   14   14   18  30.7  45.0 1029.9 27.5  1.022 -99.9 -99.99 -9.99
2019/11/17 07:18 EST    1.83   2.17   16   20   18  31.1  45.1 1030.0 27.4  1.022 -99.9 -99.99 -9.99
2019/11/17 07:24 EST    1.89   2.23   15   12   17  30.6  45.1 1029.9 27.4  1.022 -99.9 -99.99 -9.99
2019/11/17 07:30 EST    1.95   2.34   13   11   19  31.1  45.0 1029.9 27.5  1.022 -99.9 -99.99 -9.99
2019/11/17 07:36 EST    2.01   2.46   14    8   17  30.9  45.0 1029.9 27.4  1.022 -99.9 -99.99 -9.99
2019/11/17 07:42 EST    2.07   2.55   15    5   17  30.7  45.0 1030.0 27.4  1.022 -99.9 -99.99 -9.99
2019/11/17 07:48 EST    2.13   2.62   13    9   16  31.1  44.6 1030.0 27.5  1.022 -99.9 -99.99 -9.99
2019/11/17 07:54 EST    2.20   2.75   11  359   14  30.9  44.6 1029.9 27.4  1.022 -99.9 -99.99 -9.99
2019/11/17 08:00 EST    2.26   2.84   11  355   13  30.7  44.4 1030.0 27.5  1.022 -99.9 -99.99 -9.99
2019/11/17 08:06 EST    2.33   2.94   10  356   13  30.7  44.6 1030.0 27.4  1.022 -99.9 -99.99 -9.99
2019/11/17 08:12 EST    2.39   3.04   11  358   13  30.6  44.4 1030.1 27.5  1.022 -99.9 -99.99 -9.99
2019/11/17 08:18 EST    2.46   3.11   10  352   14  30.9  44.6 1030.2 27.4  1.022 -99.9 -99.99 -9.99
2019/11/17 08:24 EST    2.53   3.17   10  351   13  31.1  45.0 1030.2 27.4  1.022 -99.9 -99.99 -9.99
2019/11/17 08:30 EST    2.60   3.25   10  347   13  30.9  44.6 1030.2 27.4  1.022 -99.9 -99.99 -9.99
2019/11/17 08:36 EST    2.67 -99.99 -999 -999 -999 -99.9 -99.9 -999.9 -9.9 -9.999 -99.9 -99.99 -9.99
2019/11/17 08:42 EST    2.74 -99.99 -999 -999 -999 -99.9 -99.9 -999.9 -9.9 -9.999 -99.9 -99.99 -9.99
2019/11/17 08:48 EST    2.81 -99.99 -999 -999 -999 -99.9 -99.9 -999.9 -9.9 -9.999 -99.9 -99.99 -9.99